Data Archive--November, 2003

Date Time Heat Index Current Temp Wind Chill High Temp Low Temp Humidity Dew Point Wind Speed Gust Wind Direction Rain Barometer
11/01/2003 12:00 a 48.7 48.7 48.7 48.9 48.7 94 47.1 0.0 0.0 --- 0.00 30.084
11/01/2003 12:30 a 48.5 48.5 48.5 48.8 48.0 95 47.1 0.0 0.0 --- 0.00 30.072
11/01/2003 1:00 a 47.7 47.7 47.7 48.0 47.2 95 46.3 0.0 0.0 --- 0.00 30.070
11/01/2003 1:30 a 46.9 46.9 46.9 47.2 46.8 96 45.8 0.0 0.0 --- 0.00 30.069
11/01/2003 2:00 a 46.8 46.8 46.8 46.9 46.6 96 45.7 0.0 0.0 --- 0.00 30.061
11/01/2003 2:30 a 46.6 46.6 46.6 46.7 46.2 96 45.5 0.0 0.0 --- 0.00 30.057
11/01/2003 3:00 a 45.9 45.9 45.9 46.2 45.7 96 44.8 0.0 0.0 --- 0.00 30.059
11/01/2003 3:30 a 45.7 45.7 45.7 45.9 45.5 96 44.6 0.0 0.0 --- 0.01 30.060
11/01/2003 4:00 a 45.7 45.7 45.7 45.8 45.5 97 44.9 0.0 0.0 --- 0.00 30.057
11/01/2003 4:30 a 45.7 45.7 45.7 45.8 45.6 97 44.9 0.0 0.0 --- 0.00 30.057
11/01/2003 5:00 a 45.6 45.6 45.6 45.8 45.5 97 44.8 0.0 0.0 --- 0.00 30.056
11/01/2003 5:30 a 45.7 45.7 45.7 45.8 45.7 97 44.9 0.0 0.0 --- 0.00 30.059
11/01/2003 6:00 a 45.9 45.9 45.9 46.0 45.7 97 45.1 0.0 0.0 --- 0.00 30.054
11/01/2003 6:30 a 45.9 45.9 45.9 46.0 45.8 97 45.1 0.0 0.0 --- 0.00 30.051
11/01/2003 7:00 a 46.3 46.3 46.3 47.0 45.9 97 45.5 0.0 0.0 --- 0.00 30.067
11/01/2003 7:30 a 48.0 48.0 48.0 49.4 46.9 98 47.5 0.0 0.0 --- 0.00 30.071
11/01/2003 8:00 a 50.6 50.6 50.6 51.4 49.4 97 49.8 0.0 0.0 --- 0.00 30.071
11/01/2003 8:30 a 52.5 52.5 52.5 53.8 51.4 94 50.8 0.0 0.0 --- 0.00 30.078
11/01/2003 9:00 a 55.1 55.1 55.1 56.5 53.8 89 51.9 0.0 1.0 --- 0.00 30.076
11/01/2003 9:30 a 58.0 58.0 58.0 59.3 56.5 79 51.5 0.0 1.0 NW 0.00 30.062
11/01/2003 10:00 a 60.8 60.8 60.8 62.1 59.3 73 52.1 0.0 1.0 NW 0.00 30.062
11/01/2003 10:30 a 63.7 63.7 63.7 65.8 62.1 67 52.6 0.0 1.0 WNW 0.00 30.060
11/01/2003 11:00 a 67.0 67.0 67.0 68.6 65.8 63 54.0 0.0 2.0 WNW 0.00 30.051
11/01/2003 11:30 a 69.8 69.7 69.7 70.6 68.6 59 54.7 0.0 1.0 SSE 0.00 30.042
11/01/2003 12:00 p 75.4 76.7 76.7 81.8 70.6 42 51.9 0.0 1.0 SSE 0.00 30.019
11/01/2003 12:30 p 77.0 76.7 76.7 81.8 74.5 55 59.3 0.0 1.0 SSE 0.00 30.009
11/01/2003 1:00 p 75.0 74.6 74.6 74.8 74.4 55 57.4 0.0 3.0 SE 0.00 30.002
11/01/2003 1:30 p 75.0 75.3 75.3 75.7 74.8 55 58.0 0.0 2.0 SSE 0.00 29.990
11/01/2003 2:00 p 76.0 76.1 76.1 76.3 75.7 55 58.8 0.0 2.0 SSE 0.01 29.989
11/01/2003 2:30 p 75.0 75.3 75.3 75.8 74.6 57 59.0 0.0 0.0 --- 0.00 29.986
11/01/2003 3:00 p 74.0 74.1 74.1 74.7 73.7 59 58.9 0.0 2.0 SW 0.00 29.991
11/01/2003 3:30 p 74.0 73.9 73.9 74.2 73.7 59 58.7 0.0 0.0 --- 0.00 29.993
11/01/2003 4:00 p 73.4 72.9 72.9 73.9 71.9 64 60.0 0.0 0.0 --- 0.00 29.985
11/01/2003 4:30 p 71.0 70.8 70.8 71.9 69.7 69 60.1 0.0 0.0 --- 0.00 29.994
11/01/2003 5:00 p 68.8 68.3 68.3 69.7 66.8 74 59.7 0.0 0.0 --- 0.00 29.995
11/01/2003 5:30 p 65.7 65.7 65.7 66.8 64.5 79 59.0 0.0 0.0 --- 0.00 30.004
11/01/2003 6:00 p 63.8 63.8 63.8 64.5 62.7 83 58.5 0.0 0.0 --- 0.00 30.010
11/01/2003 6:30 p 61.9 61.9 61.9 62.7 61.2 86 57.7 0.0 0.0 --- 0.00 30.014
11/01/2003 7:00 p 60.5 60.5 60.5 61.3 59.9 89 57.2 0.0 0.0 --- 0.00 30.016
11/01/2003 7:30 p 59.7 59.7 59.7 59.9 59.3 91 57.1 0.0 0.0 --- 0.00 30.022
11/01/2003 8:00 p 58.9 58.9 58.9 59.4 58.5 93 56.9 0.0 0.0 --- 0.01 30.020
11/01/2003 8:30 p 58.2 58.2 58.2 58.5 57.8 94 56.5 0.0 0.0 --- 0.00 30.025
11/01/2003 9:00 p 57.6 57.6 57.6 57.8 57.5 94 55.9 0.0 0.0 --- 0.00 30.033
11/01/2003 9:30 p 57.5 57.5 57.5 57.7 57.2 95 56.1 0.0 0.0 --- 0.00 30.035
11/01/2003 10:00 p 57.0 57.0 57.0 57.3 56.7 95 55.6 0.0 0.0 --- 0.00 30.035
11/01/2003 10:30 p 56.6 56.6 56.6 56.8 56.4 95 55.2 0.0 0.0 --- 0.00 30.025
11/01/2003 11:00 p 56.2 56.2 56.2 56.4 56.0 96 55.1 0.0 0.0 --- 0.00 30.029
11/01/2003 11:30 p 56.5 56.5 56.5 56.8 56.1 95 55.1 0.0 0.0 --- 0.00 30.026
11/02/2003 12:00 a 56.1 56.1 56.1 56.5 55.8 96 55.0 0.0 0.0 --- 0.00 30.030
11/02/2003 12:30 a 55.4 55.4 55.4 55.8 55.2 96 54.3 0.0 0.0 --- 0.00 30.029
11/02/2003 1:00 a 55.8 55.8 55.8 56.1 55.3 96 54.7 0.0 0.0 --- 0.00 30.034
11/02/2003 1:30 a 55.0 55.0 55.0 55.6 54.6 96 53.9 0.0 0.0 --- 0.00 30.045
11/02/2003 2:00 a 54.5 54.5 54.5 54.7 54.2 97 53.7 0.0 0.0 --- 0.00 30.051
11/02/2003 2:30 a 55.1 55.1 55.1 55.5 54.4 97 54.3 0.0 0.0 --- 0.00 30.051
11/02/2003 3:00 a 55.5 55.5 55.5 55.7 55.1 96 54.4 0.0 0.0 --- 0.00 30.050
11/02/2003 3:30 a 54.6 54.6 54.6 55.1 54.1 96 53.5 0.0 0.0 --- 0.00 30.055
11/02/2003 4:00 a 53.8 53.8 53.8 54.1 53.3 97 53.0 0.0 0.0 --- 0.00 30.052
11/02/2003 4:30 a 52.9 52.9 52.9 53.4 52.4 97 52.1 0.0 0.0 --- 0.00 30.060
11/02/2003 5:00 a 52.1 52.1 52.1 52.4 51.8 97 51.3 0.0 0.0 --- 0.00 30.063
11/02/2003 5:30 a 51.5 51.5 51.5 51.8 51.3 97 50.7 0.0 0.0 --- 0.00 30.071
11/02/2003 6:00 a 50.7 50.7 50.7 51.3 50.4 97 49.9 0.0 0.0 --- 0.00 30.076
11/02/2003 6:30 a 50.4 50.4 50.4 50.6 50.2 97 49.6 0.0 0.0 --- 0.01 30.083
11/02/2003 7:00 a 50.5 50.5 50.5 50.8 50.2 97 49.7 0.0 0.0 --- 0.00 30.099
11/02/2003 7:30 a 51.6 51.6 51.6 52.4 50.8 97 50.8 0.0 0.0 --- 0.00 30.115
11/02/2003 8:00 a 53.8 53.8 53.8 55.2 52.4 97 53.0 0.0 0.0 --- 0.00 30.118
11/02/2003 8:30 a 56.7 56.7 56.7 58.1 55.2 94 55.0 0.0 0.0 --- 0.00 30.120
11/02/2003 9:00 a 58.5 58.5 58.5 59.4 58.1 89 55.3 0.0 0.0 --- 0.00 30.114
11/02/2003 9:30 a 60.5 60.5 60.5 61.5 59.4 80 54.3 0.0 0.0 --- 0.00 30.107
11/02/2003 10:00 a 62.2 62.2 62.2 62.8 61.5 74 53.8 0.0 1.0 SW 0.00 30.103
11/02/2003 10:30 a 63.7 63.7 63.7 65.0 62.8 68 53.0 0.0 1.0 NW 0.00 30.093
11/02/2003 11:00 a 65.2 65.2 65.2 66.3 64.7 65 53.2 0.0 1.0 NW 0.00 30.074
11/02/2003 11:30 a 67.1 67.1 67.1 67.7 66.3 61 53.2 0.0 2.0 NW 0.00 30.068
11/02/2003 12:00 p 72.2 72.6 72.6 77.4 67.7 46 50.7 0.0 2.0 NW 0.00 30.056
11/02/2003 12:30 p 71.0 70.7 70.7 77.0 68.8 60 56.1 0.0 3.0 NNW 0.00 30.038
11/02/2003 1:00 p 69.0 69.3 69.3 69.8 68.8 61 55.3 0.0 4.0 NW 0.00 30.028
11/02/2003 1:30 p 70.0 69.6 69.6 69.8 69.4 63 56.5 0.0 3.0 WNW 0.00 30.014
11/02/2003 2:00 p 70.0 69.7 69.7 70.0 69.4 62 56.1 0.0 1.0 --- 0.00 30.019
11/02/2003 2:30 p 70.0 69.9 69.9 70.3 69.5 61 55.9 0.0 2.0 NW 0.00 30.016
11/02/2003 3:00 p 70.0 70.3 70.3 70.9 69.8 60 55.8 0.0 2.0 NW 0.00 30.017
11/02/2003 3:30 p 70.0 69.8 69.8 71.0 68.0 62 56.2 0.0 4.0 NNW 0.01 30.022
11/02/2003 4:00 p 67.2 67.2 67.2 68.0 66.4 65 55.1 0.0 2.0 N 0.00 30.025
11/02/2003 4:30 p 65.6 65.6 65.6 66.4 63.6 89 62.3 0.0 1.0 --- 0.00 30.038
11/02/2003 5:00 p 60.6 60.6 60.6 63.5 59.6 95 59.2 0.0 0.0 --- 0.00 30.037
11/02/2003 5:30 p 59.6 59.6 59.6 59.7 59.5 95 58.2 0.0 0.0 --- 0.00 30.034
11/02/2003 6:00 p 59.8 59.8 59.8 59.9 59.7 93 57.8 0.0 0.0 --- 0.00 30.044
11/02/2003 6:30 p 59.8 59.8 59.8 59.9 59.8 93 57.8 0.0 0.0 --- 0.00 30.050
11/02/2003 7:00 p 59.6 59.6 59.6 59.8 59.4 92 57.3 0.0 0.0 --- 0.00 30.043
11/02/2003 7:30 p 59.3 59.3 59.3 59.4 59.0 94 57.6 0.0 0.0 --- 0.00 30.034
11/02/2003 8:00 p 58.7 58.7 58.7 59.1 58.3 94 57.0 0.0 0.0 --- 0.00 30.039
11/02/2003 8:30 p 57.7 57.7 57.7 58.3 56.8 94 56.0 0.0 0.0 --- 0.00 30.036
11/02/2003 9:00 p 56.7 56.7 56.7 57.3 56.3 96 55.6 0.0 0.0 --- 0.00 30.046
11/02/2003 9:30 p 56.6 56.6 56.6 56.7 56.2 95 55.2 0.0 0.0 --- 0.00 30.045
11/02/2003 10:00 p 55.6 55.6 55.6 56.2 55.3 96 54.5 0.0 0.0 --- 0.00 30.038
11/02/2003 10:30 p 55.0 55.0 55.0 55.4 54.5 97 54.2 0.0 0.0 --- 0.00 30.031
11/02/2003 11:00 p 54.2 54.2 54.2 54.5 54.0 97 53.4 0.0 0.0 --- 0.01 30.011
11/02/2003 11:30 p 53.7 53.7 53.7 54.1 53.4 97 52.9 0.0 0.0 --- 0.00 30.005
11/03/2003 12:00 a 53.3 53.3 53.3 53.4 53.2 98 52.8 0.0 0.0 --- 0.00 30.009
11/03/2003 12:30 a 52.9 52.9 52.9 53.2 52.6 98 52.4 0.0 0.0 --- 0.00 30.009
11/03/2003 1:00 a 52.4 52.4 52.4 52.6 52.3 98 51.9 0.0 0.0 --- 0.00 30.000
11/03/2003 1:30 a 52.2 52.2 52.2 52.3 52.1 98 51.7 0.0 0.0 --- 0.00 29.996
11/03/2003 2:00 a 52.1 52.1 52.1 52.2 52.0 98 51.6 0.0 0.0 --- 0.00 29.996
11/03/2003 2:30 a 52.0 52.0 52.0 52.1 51.9 98 51.5 0.0 0.0 --- 0.00 29.993
11/03/2003 3:00 a 52.0 52.0 52.0 52.3 51.8 98 51.5 0.0 0.0 --- 0.00 29.988
11/03/2003 3:30 a 52.0 52.0 52.0 52.1 51.8 98 51.5 0.0 0.0 --- 0.00 29.991
11/03/2003 4:00 a 51.7 51.7 51.7 51.9 51.5 98 51.2 0.0 0.0 --- 0.00 29.994
11/03/2003 4:30 a 51.4 51.4 51.4 51.5 51.3 98 50.9 0.0 0.0 --- 0.00 30.002
11/03/2003 5:00 a 51.5 51.5 51.5 51.6 51.3 98 51.0 0.0 0.0 --- 0.00 30.003
11/03/2003 5:30 a 51.7 51.7 51.7 51.8 51.5 99 51.4 0.0 0.0 --- 0.00 30.005
11/03/2003 6:00 a 51.6 51.6 51.6 51.7 51.3 99 51.3 0.0 0.0 --- 0.00 30.001
11/03/2003 6:30 a 51.3 51.3 51.3 51.5 51.2 99 51.0 0.0 0.0 --- 0.00 30.002
11/03/2003 7:00 a 51.5 51.5 51.5 51.8 51.3 99 51.2 0.0 0.0 --- 0.00 30.008
11/03/2003 7:30 a 52.4 52.4 52.4 53.3 51.8 98 51.9 0.0 0.0 --- 0.00 30.013
11/03/2003 8:00 a 54.9 54.9 54.9 56.7 53.3 98 54.3 0.0 0.0 --- 0.01 30.018
11/03/2003 8:30 a 59.2 59.2 59.2 60.4 56.7 97 58.4 0.0 0.0 --- 0.00 30.013
11/03/2003 9:00 a 61.0 61.0 61.0 62.1 60.3 95 59.6 0.0 0.0 --- 0.00 30.010
11/03/2003 9:30 a 63.3 63.3 63.3 64.7 62.1 93 61.2 0.0 0.0 --- 0.00 30.001
11/03/2003 10:00 a 65.9 65.9 65.9 67.0 64.7 88 62.3 0.0 2.0 N 0.00 29.996
11/03/2003 10:30 a 70.0 68.4 68.4 69.9 67.0 81 62.3 0.0 1.0 NNW 0.00 29.991
11/03/2003 11:00 a 72.0 70.5 70.5 71.3 69.9 75 62.2 0.0 0.0 --- 0.00 29.984
11/03/2003 11:30 a 74.1 72.6 72.6 73.9 71.3 71 62.7 0.0 1.0 N 0.00 29.966
11/03/2003 12:00 p 80.0 80.4 80.4 86.6 74.0 50 60.1 0.0 1.0 NNW 0.00 29.955
11/03/2003 12:30 p 81.0 79.2 79.2 86.4 76.9 62 65.1 0.0 3.0 NNW 0.00 29.939
11/03/2003 1:00 p 77.4 76.8 76.8 77.1 76.7 62 62.8 0.0 1.0 NNW 0.00 29.928
11/03/2003 1:30 p 77.2 77.4 77.4 77.5 77.1 61 62.9 0.0 1.0 NNW 0.00 29.921
11/03/2003 2:00 p 77.0 77.3 77.3 77.4 77.2 60 62.3 0.0 2.0 ESE 0.00 29.912
11/03/2003 2:30 p 77.0 77.3 77.3 77.4 77.1 60 62.3 0.0 1.0 --- 0.00 29.902
11/03/2003 3:00 p 77.0 76.9 76.9 77.1 76.8 56 60.0 0.0 1.0 ESE 0.00 29.900
11/03/2003 3:30 p 77.0 76.5 76.5 77.1 75.6 58 60.6 0.0 1.0 SSW 0.00 29.896
11/03/2003 4:00 p 75.0 75.1 75.1 75.6 74.5 59 59.8 0.0 1.0 SW 0.01 29.893
11/03/2003 4:30 p 73.7 73.4 73.4 74.5 71.8 67 61.8 0.0 0.0 --- 0.00 29.891
11/03/2003 5:00 p 70.8 70.4 70.4 71.8 69.1 74 61.7 0.0 0.0 --- 0.00 29.889
11/03/2003 5:30 p 67.6 67.6 67.6 69.0 66.6 79 60.9 0.0 0.0 --- 0.00 29.896
11/03/2003 6:00 p 65.6 65.6 65.6 66.6 65.0 82 60.0 0.0 0.0 --- 0.00 29.901
11/03/2003 6:30 p 64.9 64.9 64.9 65.0 64.8 81 58.9 0.0 0.0 --- 0.00 29.906
11/03/2003 7:00 p 64.4 64.4 64.4 64.9 63.7 84 59.5 0.0 0.0 --- 0.00 29.915
11/03/2003 7:30 p 62.4 62.4 62.4 63.7 61.6 88 58.8 0.0 0.0 --- 0.00 29.917
11/03/2003 8:00 p 60.9 60.9 60.9 61.6 60.2 91 58.3 0.0 0.0 --- 0.00 29.918
11/03/2003 8:30 p 59.7 59.7 59.7 60.2 59.0 93 57.7 0.0 0.0 --- 0.00 29.920
11/03/2003 9:00 p 58.8 58.8 58.8 59.1 58.5 94 57.1 0.0 0.0 --- 0.00 29.925
11/03/2003 9:30 p 58.0 58.0 58.0 58.5 57.6 94 56.3 0.0 0.0 --- 0.00 29.928
11/03/2003 10:00 p 57.3 57.3 57.3 57.6 56.8 95 55.9 0.0 0.0 --- 0.00 29.931
11/03/2003 10:30 p 56.4 56.4 56.4 56.8 56.0 95 55.0 0.0 0.0 --- 0.00 29.931
11/03/2003 11:00 p 55.7 55.7 55.7 56.0 55.4 95 54.3 0.0 0.0 --- 0.01 29.928
11/03/2003 11:30 p 55.0 55.0 55.0 55.4 54.7 96 53.9 0.0 0.0 --- 0.00 29.924
11/04/2003 12:00 a 54.7 54.7 54.7 54.7 54.6 96 53.6 0.0 0.0 --- 0.00 29.931
11/04/2003 12:30 a 54.3 54.3 54.3 54.6 54.1 96 53.2 0.0 0.0 --- 0.00 29.937
11/04/2003 1:00 a 53.9 53.9 53.9 54.2 53.6 96 52.8 0.0 0.0 --- 0.00 29.934
11/04/2003 1:30 a 53.4 53.4 53.4 53.6 53.1 96 52.3 0.0 0.0 --- 0.00 29.929
11/04/2003 2:00 a 53.0 53.0 53.0 53.1 52.9 96 51.9 0.0 0.0 --- 0.00 29.928
11/04/2003 2:30 a 52.9 52.9 52.9 53.0 52.7 96 51.8 0.0 0.0 --- 0.00 29.930
11/04/2003 3:00 a 52.2 52.2 52.2 52.7 51.9 96 51.1 0.0 0.0 --- 0.00 29.923
11/04/2003 3:30 a 51.6 51.6 51.6 51.9 51.3 96 50.5 0.0 0.0 --- 0.00 29.924
11/04/2003 4:00 a 51.1 51.1 51.1 51.3 50.9 96 50.0 0.0 0.0 --- 0.00 29.932
11/04/2003 4:30 a 50.8 50.8 50.8 51.1 50.5 96 49.7 0.0 0.0 --- 0.00 29.940
11/04/2003 5:00 a 50.4 50.4 50.4 50.6 50.1 96 49.3 0.0 0.0 --- 0.00 29.941
11/04/2003 5:30 a 49.9 49.9 49.9 50.2 49.7 97 49.1 0.0 0.0 --- 0.00 29.943
11/04/2003 6:00 a 49.6 49.6 49.6 49.9 49.3 96 48.5 0.0 0.0 --- 0.00 29.951
11/04/2003 6:30 a 50.4 50.4 50.4 51.4 49.3 97 49.6 0.0 0.0 --- 0.00 29.958
11/04/2003 7:00 a 52.2 52.2 52.2 53.1 51.4 98 51.7 0.0 0.0 --- 0.00 29.968
11/04/2003 7:30 a 54.0 54.0 54.0 54.8 53.1 98 53.5 0.0 0.0 --- 0.00 29.984
11/04/2003 8:00 a 55.7 55.7 55.7 56.5 54.8 98 55.1 0.0 0.0 --- 0.00 29.992
11/04/2003 8:30 a 57.2 57.2 57.2 57.6 56.5 98 56.6 0.0 0.0 --- 0.00 30.002
11/04/2003 9:00 a 58.4 58.4 58.4 59.2 57.6 97 57.6 0.0 0.0 --- 0.00 30.011
11/04/2003 9:30 a 60.4 60.4 60.4 61.3 59.2 91 57.8 0.0 1.0 SW 0.00 30.012
11/04/2003 10:00 a 62.0 62.0 62.0 62.4 61.2 88 58.4 0.0 2.0 WSW 0.00 30.021
11/04/2003 10:30 a 60.9 60.9 60.9 61.5 60.7 84 56.0 0.0 3.0 WNW 0.00 30.026
11/04/2003 11:00 a 60.9 60.9 60.9 61.1 60.7 84 56.0 0.0 2.0 WNW 0.01 30.030
11/04/2003 11:30 a 60.6 60.6 60.6 60.7 60.4 86 56.4 0.0 2.0 NW 0.00 30.028
11/04/2003 12:00 p 60.7 60.7 60.7 60.9 60.7 86 56.5 0.0 3.0 NNW 0.00 30.022
11/04/2003 12:30 p 60.6 60.6 60.6 60.8 60.4 88 57.0 0.0 2.0 N 0.00 30.015
11/04/2003 1:00 p 59.7 59.7 59.7 60.5 58.4 93 57.7 1.0 6.0 NNW 0.00 30.017
11/04/2003 1:30 p 58.3 58.3 58.3 58.7 58.1 90 55.4 1.0 5.0 NNW 0.00 30.018
11/04/2003 2:00 p 58.0 58.0 58.0 58.7 57.4 92 55.7 2.0 7.0 NNW 0.00 30.023
11/04/2003 2:30 p 57.3 57.3 57.3 57.5 56.9 92 55.0 1.0 7.0 NNW 0.00 30.029
11/04/2003 3:00 p 56.5 56.5 56.5 56.9 56.0 94 54.8 1.0 4.0 N 0.00 30.034
11/04/2003 3:30 p 55.4 55.4 55.4 56.0 55.0 96 54.3 1.0 4.0 N 0.00 30.047
11/04/2003 4:00 p 54.7 54.7 54.7 55.0 54.4 97 53.9 1.0 4.0 NNW 0.00 30.046
11/04/2003 4:30 p 54.2 54.2 54.2 54.5 53.9 97 53.4 1.0 8.0 N 0.00 30.054
11/04/2003 5:00 p 53.8 53.8 53.8 53.9 53.5 97 53.0 1.0 6.0 NNW 0.00 30.061
11/04/2003 5:30 p 53.4 53.4 53.4 53.6 53.4 98 52.9 1.0 5.0 NNW 0.00 30.063
11/04/2003 6:00 p 53.3 53.3 53.3 53.4 53.2 98 52.8 1.0 3.0 N 0.00 30.071
11/04/2003 6:30 p 53.2 53.2 53.2 53.3 53.1 98 52.7 0.0 4.0 NNW 0.00 30.078
11/04/2003 7:00 p 53.0 53.0 53.0 53.1 53.0 98 52.5 0.0 3.0 NW 0.00 30.092
11/04/2003 7:30 p 52.9 52.9 52.9 53.0 52.8 98 52.4 0.0 2.0 ENE 0.00 30.094
11/04/2003 8:00 p 52.7 52.7 52.7 52.8 52.6 99 52.4 0.0 2.0 NNW 0.00 30.092
11/04/2003 8:30 p 52.5 52.5 52.5 52.8 51.9 99 52.2 0.0 2.0 NNE 0.00 30.096
11/04/2003 9:00 p 52.3 52.3 52.3 52.8 51.8 99 52.0 0.0 3.0 NNW 0.01 30.096
11/04/2003 9:30 p 52.3 52.3 52.3 52.8 51.8 98 51.8 0.0 3.0 N 0.00 30.093
11/04/2003 10:00 p 52.2 52.2 52.2 52.7 51.7 99 51.9 0.0 3.0 NE 0.00 30.092
11/04/2003 10:30 p 52.2 52.2 52.2 52.8 51.7 99 51.9 0.0 3.0 SE 0.00 30.075
11/04/2003 11:00 p 52.4 52.4 52.4 52.9 51.9 99 52.1 0.0 4.0 N 0.00 30.068
11/04/2003 11:30 p 52.5 52.5 52.5 53.1 52.0 99 52.2 0.0 3.0 N 0.00 30.057
11/05/2003 12:00 a 52.7 52.7 52.7 53.3 52.1 99 52.4 0.0 3.0 NNW 0.00 30.059
11/05/2003 12:30 a 52.8 52.8 52.8 53.4 52.3 99 52.5 0.0 2.0 NNW 0.00 30.052
11/05/2003 1:00 a 52.9 52.9 52.9 53.4 52.4 99 52.6 0.0 3.0 NNW 0.00 30.041
11/05/2003 1:30 a 53.0 53.0 53.0 53.6 52.5 99 52.7 0.0 2.0 NNW 0.00 30.041
11/05/2003 2:00 a 53.1 53.1 53.1 53.6 52.5 99 52.8 0.0 2.0 NNW 0.00 30.043
11/05/2003 2:30 a 53.1 53.1 53.1 53.6 52.6 99 52.8 0.0 2.0 NNW 0.00 30.034
11/05/2003 3:00 a 52.9 52.9 52.9 53.5 52.4 99 52.6 0.0 3.0 NNW 0.00 30.022
11/05/2003 3:30 a 52.8 52.8 52.8 53.4 52.3 99 52.5 0.0 2.0 NNW 0.00 30.024
11/05/2003 4:00 a 52.9 52.9 52.9 53.6 52.4 99 52.6 0.0 1.0 NNW 0.00 30.012
11/05/2003 4:30 a 53.2 53.2 53.2 53.7 52.7 99 52.9 0.0 2.0 NNW 0.00 30.002
11/05/2003 5:00 a 53.3 53.3 53.3 53.8 52.7 99 53.0 0.0 2.0 NNE 0.00 30.010
11/05/2003 5:30 a 53.2 53.2 53.2 53.8 52.7 99 52.9 0.0 2.0 NW 0.00 30.012
11/05/2003 6:00 a 53.0 53.0 53.0 53.7 52.4 99 52.7 0.0 2.0 NW 0.00 30.009
11/05/2003 6:30 a 52.9 52.9 52.9 53.4 52.4 99 52.6 0.0 3.0 SSE 0.00 30.008
11/05/2003 7:00 a 52.9 52.9 52.9 53.5 52.4 99 52.6 0.0 3.0 SE 0.00 30.010
11/05/2003 7:30 a 52.3 52.3 52.3 53.1 51.5 99 52.0 0.0 2.0 WSW 0.01 30.011
11/05/2003 8:00 a 51.9 51.9 51.9 52.4 51.4 99 51.6 0.0 1.0 WSW 0.00 30.005
11/05/2003 8:30 a 52.2 52.2 52.2 52.8 51.5 99 51.9 0.0 2.0 WSW 0.00 30.004
11/05/2003 9:00 a 52.2 52.2 52.2 52.9 51.7 99 51.9 0.0 1.0 S 0.00 29.993
11/05/2003 9:30 a 52.9 52.9 52.9 53.8 52.0 99 52.6 0.0 1.0 S 0.00 29.972
11/05/2003 10:00 a 54.2 54.2 54.2 55.2 53.1 99 53.9 0.0 1.0 S 0.00 29.977
11/05/2003 10:30 a 54.8 54.8 54.8 55.6 54.2 99 54.5 0.0 1.0 --- 0.00 29.970
11/05/2003 11:00 a 55.1 55.1 55.1 55.7 54.6 99 54.8 0.0 0.0 --- 0.00 29.963
11/05/2003 11:30 a 55.1 55.1 55.1 55.8 54.5 99 54.8 0.0 2.0 S 0.00 29.943
11/05/2003 12:00 p 55.8 55.8 55.8 56.5 55.0 99 55.5 0.0 0.0 --- 0.00 29.928
11/05/2003 12:30 p 56.1 56.1 56.1 57.0 55.6 99 55.8 0.0 2.0 S 0.00 29.917
11/05/2003 1:00 p 56.6 56.6 56.6 57.2 56.0 99 56.3 0.0 0.0 --- 0.00 29.907
11/05/2003 1:30 p 56.6 56.6 56.6 57.2 56.1 99 56.3 0.0 0.0 --- 0.00 29.905
11/05/2003 2:00 p 57.1 57.1 57.1 57.6 56.4 99 56.8 0.0 0.0 --- 0.00 29.900
11/05/2003 2:30 p 57.2 57.2 57.2 57.7 56.7 99 56.9 0.0 0.0 --- 0.00 29.883
11/05/2003 3:00 p 57.2 57.2 57.2 57.7 56.6 99 56.9 0.0 0.0 --- 0.00 29.879
11/05/2003 3:30 p 57.1 57.1 57.1 57.7 56.6 99 56.8 0.0 1.0 S 0.00 29.886
11/05/2003 4:00 p 57.0 57.0 57.0 57.5 56.4 99 56.7 0.0 2.0 S 0.00 29.881
11/05/2003 4:30 p 56.8 56.8 56.8 57.3 56.2 99 56.5 0.0 1.0 S 0.00 29.882
11/05/2003 5:00 p 56.6 56.6 56.6 57.1 56.0 99 56.3 0.0 1.0 S 0.01 29.884
11/05/2003 5:30 p 56.3 56.3 56.3 56.9 55.7 99 56.0 0.0 1.0 S 0.00 29.875
11/05/2003 6:00 p 56.3 56.3 56.3 56.8 55.8 99 56.0 0.0 1.0 S 0.00 29.887
11/05/2003 6:30 p 56.4 56.4 56.4 57.0 55.9 99 56.1 0.0 1.0 --- 0.00 29.899
11/05/2003 7:00 p 56.5 56.5 56.5 57.1 56.0 99 56.2 0.0 0.0 --- 0.00 29.895
11/05/2003 7:30 p 56.7 56.7 56.7 57.3 56.2 99 56.4 0.0 1.0 S 0.00 29.901
11/05/2003 8:00 p 56.8 56.8 56.8 57.3 56.3 99 56.5 0.0 1.0 --- 0.00 29.873
11/05/2003 8:30 p 56.8 56.8 56.8 57.3 56.3 99 56.5 0.0 3.0 S 0.00 29.879
11/05/2003 9:00 p 57.0 57.0 57.0 57.5 56.4 99 56.7 0.0 2.0 S 0.00 29.869
11/05/2003 9:30 p 57.1 57.1 57.1 57.6 56.5 99 56.8 0.0 0.0 --- 0.00 29.887
11/05/2003 10:00 p 57.1 57.1 57.1 57.6 56.6 99 56.8 0.0 2.0 S 0.00 29.901
11/05/2003 10:30 p 57.3 57.3 57.3 57.8 56.7 99 57.0 0.0 1.0 S 0.00 29.901
11/05/2003 11:00 p 57.3 57.3 57.3 57.8 56.7 99 57.0 0.0 0.0 --- 0.00 29.897
11/05/2003 11:30 p 57.0 57.0 57.0 57.6 56.4 99 56.7 0.0 0.0 --- 0.00 29.905
11/06/2003 12:00 a 56.9 56.9 56.9 57.4 56.2 99 56.6 0.0 0.0 --- 0.00 29.900
11/06/2003 12:30 a 56.7 56.7 56.7 57.2 56.2 99 56.4 0.0 0.0 --- 0.00 29.886
11/06/2003 1:00 a 56.7 56.7 56.7 57.2 56.2 99 56.4 0.0 1.0 --- 0.00 29.875
11/06/2003 1:30 a 56.8 56.8 56.8 57.4 56.2 99 56.5 0.0 1.0 S 0.00 29.897
11/06/2003 2:00 a 56.7 56.7 56.7 57.3 56.2 99 56.4 0.0 0.0 --- 0.00 29.911
11/06/2003 2:30 a 56.7 56.7 56.7 57.3 56.1 99 56.4 0.0 0.0 --- 0.00 29.914
11/06/2003 3:00 a 56.5 56.5 56.5 57.0 55.9 99 56.2 0.0 1.0 --- 0.00 29.916
11/06/2003 3:30 a 56.6 56.6 56.6 57.2 56.1 99 56.3 0.0 2.0 S 0.00 29.925
11/06/2003 4:00 a 56.1 56.1 56.1 56.7 55.5 99 55.8 0.0 0.0 --- 0.00 29.930
11/06/2003 4:30 a 55.5 55.5 55.5 56.4 54.6 99 55.2 0.0 0.0 --- 0.00 29.937
11/06/2003 5:00 a 54.9 54.9 54.9 55.6 54.3 99 54.6 0.0 0.0 --- 0.00 29.940
11/06/2003 5:30 a 54.5 54.5 54.5 55.1 54.0 99 54.2 0.0 1.0 --- 0.00 29.948
11/06/2003 6:00 a 54.1 54.1 54.1 54.8 53.5 99 53.8 0.0 0.0 --- 0.00 29.954
11/06/2003 6:30 a 54.0 54.0 54.0 54.7 53.2 99 53.7 0.0 1.0 S 0.00 29.957
11/06/2003 7:00 a 53.9 53.9 53.9 54.9 53.2 99 53.6 0.0 0.0 --- 0.00 29.967
11/06/2003 7:30 a 54.7 54.7 54.7 55.9 53.9 99 54.4 0.0 0.0 --- 0.00 29.974
11/06/2003 8:00 a 56.5 56.5 56.5 57.4 55.2 99 56.2 0.0 1.0 S 0.00 29.979
11/06/2003 8:30 a 57.5 57.5 57.5 58.0 56.6 99 57.2 0.0 1.0 S 0.00 29.980
11/06/2003 9:00 a 57.8 57.8 57.8 59.0 57.0 99 57.5 0.0 0.0 --- 0.00 29.981
11/06/2003 9:30 a 59.1 59.1 59.1 59.7 58.4 99 58.8 0.0 1.0 S 0.00 29.985
11/06/2003 10:00 a 59.4 59.4 59.4 59.9 58.8 99 59.1 0.0 3.0 S 0.00 29.989
11/06/2003 10:30 a 59.6 59.6 59.6 60.2 59.1 99 59.3 0.0 0.0 --- 0.00 29.977
11/06/2003 11:00 a 59.6 59.6 59.6 60.2 59.1 99 59.3 0.0 0.0 --- 0.00 29.955
11/06/2003 11:30 a 59.1 59.1 59.1 59.9 58.5 99 58.8 0.0 1.0 S 0.00 29.946
11/06/2003 12:00 p 59.6 59.6 59.6 60.1 59.0 100 59.6 0.0 2.0 S 0.00 29.929
11/06/2003 12:30 p 58.9 58.9 58.9 59.8 58.2 99 58.6 0.0 2.0 S 0.00 29.931
11/06/2003 1:00 p 58.1 58.1 58.1 59.1 57.4 100 58.1 0.0 0.0 --- 0.00 29.944
11/06/2003 1:30 p 57.6 57.6 57.6 58.2 57.1 100 57.6 0.0 2.0 S 0.00 29.933
11/06/2003 2:00 p 57.6 57.6 57.6 58.2 56.9 100 57.6 0.0 0.0 --- 0.00 29.929
11/06/2003 2:30 p 57.1 57.1 57.1 57.8 56.5 99 56.8 0.0 0.0 --- 0.00 29.926
11/06/2003 3:00 p 56.9 56.9 56.9 57.4 56.3 99 56.6 0.0 0.0 --- 0.00 29.934
11/06/2003 3:30 p 56.7 56.7 56.7 57.4 56.0 99 56.4 0.0 0.0 --- 0.00 29.916
11/06/2003 4:00 p 55.8 55.8 55.8 56.8 54.8 100 55.8 0.0 0.0 --- 0.00 29.921
11/06/2003 4:30 p 54.5 54.5 54.5 55.6 53.5 99 54.2 0.0 1.0 S 0.00 29.915
11/06/2003 5:00 p 53.2 53.2 53.2 54.2 52.4 100 53.2 0.0 1.0 S 0.00 29.911
11/06/2003 5:30 p 52.5 52.5 52.5 53.2 51.8 100 52.5 0.0 3.0 S 0.00 29.927
11/06/2003 6:00 p 52.0 52.0 52.0 52.7 51.4 100 52.0 0.0 0.0 --- 0.00 29.933
11/06/2003 6:30 p 51.7 51.7 51.7 52.2 51.0 100 51.7 0.0 1.0 S 0.00 29.913
11/06/2003 7:00 p 51.0 51.0 51.0 52.0 50.0 100 51.0 0.0 3.0 S 0.00 29.882
11/06/2003 7:30 p 50.4 50.4 50.4 51.0 49.8 100 50.4 0.0 3.0 SSE 0.00 29.903
11/06/2003 8:00 p 50.6 50.6 50.6 51.3 49.9 100 50.6 1.0 5.0 SE 0.00 29.911
11/06/2003 8:30 p 50.1 50.1 50.1 50.8 49.5 100 50.1 0.0 2.0 SE 0.00 29.895
11/06/2003 9:00 p 50.0 50.0 50.0 50.6 49.4 100 50.0 0.0 1.0 SE 0.00 29.899
11/06/2003 9:30 p 50.1 50.1 50.1 50.6 49.6 100 50.1 0.0 2.0 SE 0.00 29.909
11/06/2003 10:00 p 50.2 50.2 50.2 50.8 49.6 100 50.2 0.0 1.0 --- 0.00 29.910
11/06/2003 10:30 p 50.4 50.4 50.4 50.9 49.8 100 50.4 0.0 1.0 --- 0.00 29.910
11/06/2003 11:00 p 50.1 50.1 50.1 50.9 49.4 100 50.1 0.0 0.0 --- 0.00 29.907
11/06/2003 11:30 p 50.1 50.1 50.1 50.6 49.4 100 50.1 0.0 1.0 SE 0.00 29.912
11/07/2003 12:00 a 50.1 50.1 50.1 50.7 49.5 100 50.1 0.0 1.0 SE 0.00 29.911
11/07/2003 12:30 a 49.8 49.8 49.8 50.4 49.2 100 49.8 0.0 2.0 SE 0.00 29.894
11/07/2003 1:00 a 49.6 49.6 49.6 50.2 49.1 100 49.6 0.0 0.0 --- 0.00 29.893
11/07/2003 1:30 a 49.8 49.8 49.8 50.3 49.2 100 49.8 0.0 4.0 SE 0.00 29.899
11/07/2003 2:00 a 49.8 49.8 49.8 50.3 49.2 100 49.8 0.0 5.0 SE 0.00 29.917
11/07/2003 2:30 a 50.0 50.0 50.0 50.5 49.4 100 50.0 0.0 0.0 --- 0.00 29.896
11/07/2003 3:00 a 50.0 50.0 50.0 50.5 49.4 100 50.0 0.0 2.0 SE 0.00 29.891
11/07/2003 3:30 a 50.0 50.0 50.0 50.6 49.4 100 50.0 0.0 1.0 --- 0.00 29.907
11/07/2003 4:00 a 50.1 50.1 50.1 50.6 49.5 100 50.1 0.0 3.0 SE 0.00 29.912
11/07/2003 4:30 a 49.8 49.8 49.8 50.3 49.2 100 49.8 0.0 2.0 SE 0.00 29.915
11/07/2003 5:00 a 49.4 49.4 49.4 50.0 48.8 100 49.4 0.0 0.0 --- 0.00 29.925
11/07/2003 5:30 a 49.1 49.1 49.1 49.7 48.5 100 49.1 0.0 1.0 --- 0.00 29.943
11/07/2003 6:00 a 48.6 48.6 48.6 49.4 47.6 100 48.6 0.0 4.0 SE 0.00 29.951
11/07/2003 6:30 a 47.3 47.3 47.3 48.5 45.9 100 47.3 0.0 4.0 SE 0.00 29.955
11/07/2003 7:00 a 46.7 46.7 46.7 47.7 45.8 100 46.7 1.0 7.0 ESE 0.00 29.978
11/07/2003 7:30 a 47.5 47.5 47.5 48.9 46.7 100 47.5 0.0 4.0 ESE 0.00 29.989
11/07/2003 8:00 a 48.1 48.1 48.1 49.3 47.3 99 47.8 1.0 7.0 SE 0.01 30.002
11/07/2003 8:30 a 48.2 48.2 48.2 48.9 47.3 99 47.9 1.0 12.0 SE 0.00 30.008
11/07/2003 9:00 a 49.1 49.1 49.1 50.1 48.2 99 48.8 1.0 8.0 SSE 0.00 30.014
11/07/2003 9:30 a 49.7 49.7 49.7 51.0 49.1 98 49.2 1.0 8.0 SE 0.00 30.017
11/07/2003 10:00 a 50.9 50.9 50.9 51.5 50.3 94 49.2 1.0 7.0 SSE 0.00 30.012
11/07/2003 10:30 a 50.9 50.9 50.9 51.9 49.9 88 47.5 1.0 8.0 SE 0.00 30.010
11/07/2003 11:00 a 51.6 51.6 51.6 52.1 51.1 78 45.0 1.0 6.0 SE 0.00 30.005
11/07/2003 11:30 a 53.0 53.0 53.0 55.6 51.5 62 40.3 2.0 9.0 SE 0.00 29.988
11/07/2003 12:00 p 62.8 62.8 62.8 67.1 55.4 45 41.2 1.0 7.0 SE 0.00 29.978
11/07/2003 12:30 p 57.5 57.5 57.5 66.0 54.8 56 41.9 2.0 9.0 SE 0.00 29.971
11/07/2003 1:00 p 55.4 55.4 55.4 55.9 54.9 57 40.4 1.0 7.0 SSE 0.00 29.968
11/07/2003 1:30 p 55.3 55.3 55.3 55.8 54.8 57 40.3 1.0 7.0 SE 0.00 29.952
11/07/2003 2:00 p 55.6 55.6 55.6 56.0 55.2 55 39.7 1.0 6.0 SE 0.00 29.954
11/07/2003 2:30 p 55.9 55.9 55.9 56.2 55.5 53 39.0 1.0 8.0 SE 0.00 29.951
11/07/2003 3:00 p 55.9 55.9 55.9 56.3 55.3 54 39.5 1.0 9.0 SE 0.00 29.949
11/07/2003 3:30 p 55.1 55.1 55.1 55.6 54.5 56 39.7 0.0 5.0 SE 0.00 29.945
11/07/2003 4:00 p 54.3 54.3 54.3 54.9 53.7 54 38.0 0.0 6.0 ESE 0.00 29.941
11/07/2003 4:30 p 53.1 53.1 53.1 54.2 51.7 57 38.3 0.0 4.0 SE 0.00 29.949
11/07/2003 5:00 p 50.9 50.9 50.9 52.1 50.1 59 37.1 0.0 1.0 --- 0.00 29.957
11/07/2003 5:30 p 48.6 48.6 48.6 50.5 47.0 66 37.8 0.0 1.0 N 0.00 29.971
11/07/2003 6:00 p 47.2 47.2 47.2 48.0 46.0 77 40.4 0.0 1.0 N 0.00 29.984
11/07/2003 6:30 p 45.8 45.8 45.8 46.4 45.3 71 36.9 0.0 1.0 --- 0.00 29.996
11/07/2003 7:00 p 46.0 46.0 46.0 46.7 45.0 75 38.5 0.0 0.0 --- 0.00 30.001
11/07/2003 7:30 p 44.3 44.3 44.3 45.3 43.6 80 38.5 0.0 0.0 --- 0.00 30.006
11/07/2003 8:00 p 44.3 44.3 44.3 45.2 43.5 80 38.5 0.0 0.0 --- 0.00 30.006
11/07/2003 8:30 p 44.6 44.6 44.6 45.3 44.0 80 38.8 0.0 0.0 --- 0.00 29.995
11/07/2003 9:00 p 44.7 44.7 44.7 45.2 44.2 83 39.9 0.0 0.0 --- 0.00 30.000
11/07/2003 9:30 p 45.4 45.4 45.4 46.2 44.6 78 39.0 0.0 0.0 --- 0.00 30.007
11/07/2003 10:00 p 45.9 45.9 45.9 46.5 45.2 78 39.4 0.0 0.0 --- 0.00 30.013
11/07/2003 10:30 p 45.5 45.5 45.5 46.1 45.0 77 38.7 0.0 0.0 --- 0.00 30.005
11/07/2003 11:00 p 46.1 46.1 46.1 46.5 45.6 75 38.6 0.0 0.0 --- 0.00 30.009
11/07/2003 11:30 p 46.1 46.1 46.1 46.9 45.5 61 33.4 0.0 2.0 N 0.00 30.017
11/08/2003 12:00 a 47.0 47.0 47.0 47.3 46.5 55 31.7 0.0 4.0 SE 0.00 30.025
11/08/2003 12:30 a 47.5 47.5 47.5 47.7 47.3 51 30.3 0.0 5.0 ESE 0.00 30.027
11/08/2003 1:00 a 47.3 47.3 47.3 47.7 46.7 52 30.6 0.0 5.0 ESE 0.00 30.035
11/08/2003 1:30 a 46.1 46.1 46.1 46.7 45.1 52 29.5 0.0 4.0 ESE 0.00 30.044
11/08/2003 2:00 a 44.8 44.8 44.8 45.2 43.8 53 28.7 0.0 3.0 SSE 0.00 30.052
11/08/2003 2:30 a 43.2 43.2 43.2 43.8 42.4 57 29.0 0.0 5.0 ESE 0.00 30.053
11/08/2003 3:00 a 41.4 41.4 41.4 42.4 40.8 61 29.0 0.0 2.0 ESE 0.00 30.052
11/08/2003 3:30 a 40.9 40.9 40.9 41.2 40.5 58 27.3 0.0 1.0 --- 0.00 30.052
11/08/2003 4:00 a 40.6 40.6 40.6 41.0 40.1 61 28.2 0.0 0.0 --- 0.00 30.064
11/08/2003 4:30 a 39.5 39.5 39.5 40.1 39.1 65 28.7 0.0 1.0 ESE 0.00 30.073
11/08/2003 5:00 a 39.6 39.6 39.6 39.7 39.3 64 28.4 0.0 2.0 ESE 0.00 30.084
11/08/2003 5:30 a 38.7 38.7 38.7 39.5 38.0 69 29.4 0.0 0.0 --- 0.00 30.093
11/08/2003 6:00 a 37.4 37.4 37.4 38.0 37.1 70 28.5 0.0 1.0 NNE 0.00 30.108
11/08/2003 6:30 a 37.7 37.7 37.7 38.1 37.2 72 29.5 0.0 1.0 NNE 0.00 30.136
11/08/2003 7:00 a 37.2 37.2 37.2 38.3 37.0 68 27.6 0.0 0.0 --- 0.00 30.153
11/08/2003 7:30 a 39.6 39.6 39.6 41.2 38.3 62 27.7 0.0 6.0 NE 0.00 30.168
11/08/2003 8:00 a 43.9 43.9 43.9 45.8 41.2 46 24.5 2.0 6.0 SE 0.00 30.193
11/08/2003 8:30 a 44.6 44.6 44.6 47.0 41.8 44 24.1 3.0 10.0 SSE 0.00 30.224
11/08/2003 9:00 a 41.5 41.5 41.5 41.9 41.1 44 21.2 3.0 12.0 SSE 0.00 30.238
11/08/2003 9:30 a 41.2 41.2 41.2 41.4 41.0 44 21.0 2.0 13.0 SE 0.00 30.244
11/08/2003 10:00 a 41.9 41.9 41.9 43.2 41.4 39 18.8 2.0 9.0 S 0.00 30.250
11/08/2003 10:30 a 42.1 42.1 42.1 42.5 41.7 42 20.7 2.0 9.0 SE 0.00 30.260
11/08/2003 11:00 a 41.9 41.9 41.9 42.5 41.4 40 19.4 3.0 12.0 SE 0.00 30.266
11/08/2003 11:30 a 42.9 42.9 42.9 46.3 41.5 33 15.8 3.0 15.0 SE 0.00 30.265
11/08/2003 12:00 p 52.1 52.1 52.1 54.9 46.5 27 19.2 3.0 10.0 SE 0.00 30.264
11/08/2003 12:30 p 44.7 44.7 44.7 53.0 42.5 34 18.1 2.0 10.0 SSW 0.00 30.262
11/08/2003 1:00 p 42.2 42.2 42.2 42.5 42.0 34 15.9 3.0 12.0 SE 0.00 30.271
11/08/2003 1:30 p 42.2 42.2 42.2 42.4 41.9 31 13.7 2.0 8.0 SE 0.00 30.274
11/08/2003 2:00 p 41.8 41.8 41.8 42.0 41.7 29 11.9 3.0 9.0 SE 0.00 30.279
11/08/2003 2:30 p 41.5 41.5 41.5 41.8 41.2 31 13.1 3.0 17.0 SE 0.00 30.283
11/08/2003 3:00 p 41.0 41.0 41.0 41.4 40.6 29 11.2 1.0 6.0 S 0.00 30.294
11/08/2003 3:30 p 40.3 40.3 40.3 40.7 39.9 29 10.6 2.0 6.0 SE 0.00 30.304
11/08/2003 4:00 p 39.8 39.8 39.8 40.0 39.3 28 9.4 1.0 6.0 SSE 0.00 30.323
11/08/2003 4:30 p 38.4 38.4 38.4 39.3 37.6 32 11.1 1.0 5.0 SSE 0.00 30.332
11/08/2003 5:00 p 37.4 37.4 37.4 37.8 36.8 28 7.3 1.0 7.0 SE 0.00 30.333
11/08/2003 5:30 p 35.9 35.9 35.9 36.8 35.4 33 9.6 0.0 3.0 SE 0.00 30.341
11/08/2003 6:00 p 34.5 34.5 34.5 35.4 33.5 41 13.2 0.0 1.0 SE 0.00 30.360
11/08/2003 6:30 p 32.7 32.7 32.7 33.5 31.4 47 14.7 0.0 3.0 SE 0.00 30.370
11/08/2003 7:00 p 31.7 31.7 31.7 31.9 31.5 42 11.2 0.0 1.0 SE 0.00 30.377
11/08/2003 7:30 p 31.3 31.3 31.3 32.0 30.2 54 16.6 0.0 1.0 SE 0.00 30.389
11/08/2003 8:00 p 29.7 29.7 29.7 30.2 29.2 53 14.7 0.0 0.0 --- 0.00 30.409
11/08/2003 8:30 p 28.7 28.7 28.7 29.3 28.1 56 15.0 0.0 0.0 --- 0.00 30.429
11/08/2003 9:00 p 28.5 28.5 28.5 28.9 28.0 59 16.0 0.0 0.0 --- 0.00 30.428
11/08/2003 9:30 p 28.0 28.0 28.0 28.5 27.7 65 17.8 0.0 0.0 --- 0.00 30.442
11/08/2003 10:00 p 28.2 28.2 28.2 29.0 27.5 60 16.1 0.0 2.0 SE 0.00 30.453
11/08/2003 10:30 p 28.4 28.4 28.4 28.8 28.2 53 13.5 0.0 1.0 --- 0.00 30.464
11/08/2003 11:00 p 28.4 28.4 28.4 28.6 28.1 49 11.7 0.0 0.0 --- 0.00 30.478
11/08/2003 11:30 p 28.0 28.0 28.0 28.4 27.5 56 14.3 0.0 1.0 SE 0.00 30.486
11/09/2003 12:00 a 27.4 27.4 27.4 27.9 27.0 63 16.5 0.0 2.0 SE 0.00 30.492
11/09/2003 12:30 a 26.8 26.8 26.8 27.2 26.3 56 13.2 0.0 1.0 SE 0.00 30.490
11/09/2003 1:00 a 27.6 27.6 27.6 28.1 26.8 53 12.7 0.0 2.0 SSE 0.00 30.494
11/09/2003 1:30 a 27.9 27.9 27.9 28.2 27.6 54 13.4 0.0 2.0 SSE 0.00 30.501
11/09/2003 2:00 a 27.4 27.4 27.4 27.9 26.8 55 13.4 0.0 2.0 SSE 0.00 30.507
11/09/2003 2:30 a 26.8 26.8 26.8 26.9 26.6 54 12.4 0.0 2.0 SSE 0.00 30.511
11/09/2003 3:00 a 26.6 26.6 26.6 27.1 25.5 65 16.4 0.0 2.0 SSE 0.00 30.511
11/09/2003 3:30 a 24.9 24.9 24.9 25.5 24.6 65 14.8 0.0 0.0 --- 0.00 30.516
11/09/2003 4:00 a 24.5 24.5 24.5 24.8 23.9 71 16.5 0.0 0.0 --- 0.00 30.519
11/09/2003 4:30 a 23.6 23.6 23.6 23.9 23.3 73 16.2 0.0 0.0 --- 0.00 30.526
11/09/2003 5:00 a 22.9 22.9 22.9 23.3 22.7 74 15.9 0.0 0.0 --- 0.00 30.532
11/09/2003 5:30 a 22.5 22.5 22.5 22.9 21.7 80 17.3 0.0 0.0 --- 0.00 30.535
11/09/2003 6:00 a 21.2 21.2 21.2 21.7 20.9 82 16.6 0.0 0.0 --- 0.00 30.536
11/09/2003 6:30 a 20.9 20.9 20.9 21.1 20.7 85 17.1 0.0 0.0 --- 0.00 30.542
11/09/2003 7:00 a 20.9 20.9 20.9 22.1 20.5 84 16.8 0.0 0.0 --- 0.00 30.550
11/09/2003 7:30 a 22.5 22.5 22.5 25.4 21.9 81 17.6 0.0 1.0 SSE 0.00 30.559
11/09/2003 8:00 a 30.7 30.7 30.7 39.4 25.4 55 16.5 0.0 0.0 --- 0.00 30.567
11/09/2003 8:30 a 40.3 40.3 40.3 44.5 35.8 49 22.7 0.0 2.0 SE 0.00 30.569
11/09/2003 9:00 a 35.8 35.8 35.8 37.4 34.3 49 18.5 0.0 2.0 SE 0.00 30.572
11/09/2003 9:30 a 35.6 35.6 35.6 36.3 34.3 44 15.9 1.0 3.0 SE 0.01 30.572
11/09/2003 10:00 a 36.4 36.4 36.4 36.8 36.0 41 15.0 1.0 5.0 SE 0.02 30.575
11/09/2003 10:30 a 38.0 38.0 38.0 38.6 36.6 38 14.7 1.0 4.0 WNW 0.22 30.568
11/09/2003 11:00 a 38.4 38.4 38.4 38.9 37.9 37 14.4 1.0 7.0 SE 0.13 30.557
11/09/2003 11:30 a 40.8 40.8 40.8 46.3 38.9 27 9.4 2.0 7.0 SE 0.06 30.538
11/09/2003 12:00 p 53.3 53.3 53.3 55.9 46.5 21 14.4 1.0 6.0 ESE 0.06 30.527
11/09/2003 12:30 p 45.0 45.0 45.0 54.2 42.1 27 13.0 1.0 6.0 SE 0.08 30.514
11/09/2003 1:00 p 42.3 42.3 42.3 42.5 42.1 27 10.7 1.0 5.0 SE 0.08 30.501
11/09/2003 1:30 p 42.2 42.2 42.2 42.5 41.9 27 10.6 1.0 5.0 SE 0.08 30.490
11/09/2003 2:00 p 42.3 42.3 42.3 42.5 42.2 29 12.3 1.0 8.0 SE 0.05 30.483
11/09/2003 2:30 p 42.1 42.1 42.1 42.3 42.0 29 12.2 1.0 6.0 SE 0.06 30.475
11/09/2003 3:00 p 41.7 41.7 41.7 42.2 41.4 31 13.3 1.0 5.0 SE 0.05 30.473
11/09/2003 3:30 p 41.1 41.1 41.1 41.4 40.8 33 14.2 1.0 6.0 ESE 0.05 30.470
11/09/2003 4:00 p 40.3 40.3 40.3 40.8 39.2 36 15.5 0.0 3.0 ESE 0.05 30.465
11/09/2003 4:30 p 38.8 38.8 38.8 39.2 38.0 40 16.6 0.0 3.0 ESE 0.05 30.462
11/09/2003 5:00 p 36.8 36.8 36.8 37.9 35.8 44 16.9 0.0 2.0 SW 0.05 30.460
11/09/2003 5:30 p 34.6 34.6 34.6 35.8 33.3 56 20.5 0.0 0.0 --- 0.04 30.459
11/09/2003 6:00 p 32.3 32.3 32.3 33.3 31.3 61 20.4 0.0 0.0 --- 0.04 30.463
11/09/2003 6:30 p 30.4 30.4 30.4 31.3 29.5 65 20.1 0.0 0.0 --- 0.03 30.462
11/09/2003 7:00 p 28.7 28.7 28.7 29.5 28.1 69 19.8 0.0 0.0 --- 0.03 30.461
11/09/2003 7:30 p 27.9 27.9 27.9 28.1 27.6 66 18.0 0.0 0.0 --- 0.03 30.462
11/09/2003 8:00 p 27.5 27.5 27.5 27.7 27.1 69 18.7 0.0 0.0 --- 0.02 30.458
11/09/2003 8:30 p 27.2 27.2 27.2 27.5 26.8 76 20.7 0.0 0.0 --- 0.03 30.458
11/09/2003 9:00 p 26.7 26.7 26.7 26.9 26.4 81 21.7 0.0 0.0 --- 0.02 30.459
11/09/2003 9:30 p 26.3 26.3 26.3 26.5 25.9 82 21.6 0.0 0.0 --- 0.02 30.460
11/09/2003 10:00 p 26.0 26.0 26.0 26.2 25.7 82 21.3 0.0 0.0 --- 0.02 30.456
11/09/2003 10:30 p 25.7 25.7 25.7 26.2 25.2 83 21.3 0.0 0.0 --- 0.00 30.450
11/09/2003 11:00 p 25.1 25.1 25.1 25.2 24.8 84 21.0 0.0 0.0 --- 0.00 30.450
11/09/2003 11:30 p 24.8 24.8 24.8 25.0 24.5 86 21.2 0.0 0.0 --- 0.00 30.448
11/10/2003 12:00 a 24.0 24.0 24.0 24.5 23.8 87 20.7 0.0 0.0 --- 0.00 30.444
11/10/2003 12:30 a 23.8 23.8 23.8 24.0 23.6 88 20.8 0.0 0.0 --- 0.00 30.442
11/10/2003 1:00 a 23.3 23.3 23.3 23.7 23.0 88 20.3 0.0 0.0 --- 0.00 30.439
11/10/2003 1:30 a 22.8 22.8 22.8 23.0 22.6 88 19.8 0.0 0.0 --- 0.00 30.438
11/10/2003 2:00 a 22.6 22.6 22.6 22.8 22.4 89 19.9 0.0 0.0 --- 0.00 30.437
11/10/2003 2:30 a 22.5 22.5 22.5 22.8 22.1 88 19.5 0.0 0.0 --- 0.00 30.430
11/10/2003 3:00 a 21.8 21.8 21.8 22.1 21.7 88 18.8 0.0 0.0 --- 0.00 30.428
11/10/2003 3:30 a 21.9 21.9 21.9 22.0 21.7 87 18.6 0.0 0.0 --- 0.00 30.422
11/10/2003 4:00 a 21.3 21.3 21.3 21.7 20.9 87 18.0 0.0 0.0 --- 0.00 30.414
11/10/2003 4:30 a 21.0 21.0 21.0 21.1 20.9 88 18.0 0.0 0.0 --- 0.00 30.414
11/10/2003 5:00 a 21.0 21.0 21.0 21.1 20.9 88 18.0 0.0 0.0 --- 0.00 30.415
11/10/2003 5:30 a 20.7 20.7 20.7 21.0 20.5 88 17.7 0.0 0.0 --- 0.00 30.420
11/10/2003 6:00 a 20.5 20.5 20.5 20.7 20.2 87 17.3 0.0 0.0 --- 0.00 30.420
11/10/2003 6:30 a 20.2 20.2 20.2 20.3 20.0 88 17.2 0.0 0.0 --- 0.00 30.416
11/10/2003 7:00 a 20.3 20.3 20.3 21.1 20.0 88 17.3 0.0 0.0 --- 0.00 30.419
11/10/2003 7:30 a 21.9 21.9 21.9 24.0 21.1 88 18.9 0.0 0.0 --- 0.00 30.416
11/10/2003 8:00 a 30.4 30.4 30.4 37.8 24.1 77 24.1 0.0 3.0 SW 0.00 30.416
11/10/2003 8:30 a 37.7 37.7 37.7 41.2 35.4 72 29.5 0.0 0.0 --- 0.00 30.414
11/10/2003 9:00 a 34.0 34.0 34.0 36.0 32.9 72 25.9 0.0 2.0 SW 0.00 30.408
11/10/2003 9:30 a 35.2 35.2 35.2 36.4 33.2 61 23.1 0.0 1.0 SW 0.01 30.412
11/10/2003 10:00 a 37.3 37.3 37.3 38.0 35.9 53 21.8 0.0 4.0 ESE 0.00 30.403
11/10/2003 10:30 a 40.0 40.0 40.0 40.9 38.0 45 20.4 0.0 4.0 ESE 0.00 30.393
11/10/2003 11:00 a 40.8 40.8 40.8 41.7 40.2 39 17.8 0.0 3.0 ESE 0.06 30.385
11/10/2003 11:30 a 44.0 44.0 44.0 48.9 41.7 31 15.3 0.0 6.0 SE 0.11 30.364
11/10/2003 12:00 p 56.0 56.0 56.0 59.6 49.0 21 16.6 0.0 4.0 ENE 0.32 30.340
11/10/2003 12:30 p 48.0 48.0 48.0 57.5 45.0 33 20.3 1.0 4.0 SE 0.05 30.322
11/10/2003 1:00 p 45.2 45.2 45.2 45.3 45.0 34 18.5 1.0 5.0 SE 0.01 30.306
11/10/2003 1:30 p 45.5 45.5 45.5 45.9 45.2 33 18.1 1.0 3.0 ESE 0.02 30.302
11/10/2003 2:00 p 45.9 45.9 45.9 46.0 45.8 33 18.4 1.0 5.0 SE 0.01 30.286
11/10/2003 2:30 p 45.8 45.8 45.8 46.0 45.5 33 18.3 0.0 4.0 NNW 0.02 30.280
11/10/2003 3:00 p 45.4 45.4 45.4 45.6 45.2 33 18.0 0.0 3.0 SE 0.01 30.274
11/10/2003 3:30 p 44.9 44.9 44.9 45.4 44.1 35 18.9 0.0 2.0 N 0.01 30.260
11/10/2003 4:00 p 43.4 43.4 43.4 44.2 42.4 38 19.5 0.0 1.0 N 0.01 30.254
11/10/2003 4:30 p 41.0 41.0 41.0 42.4 39.7 41 19.1 0.0 0.0 --- 0.01 30.251
11/10/2003 5:00 p 38.0 38.0 38.0 39.7 36.5 51 21.5 0.0 0.0 --- 0.00 30.248
11/10/2003 5:30 p 36.1 36.1 36.1 36.5 35.0 53 20.6 0.0 1.0 --- 0.00 30.248
11/10/2003 6:00 p 34.1 34.1 34.1 35.0 33.1 67 24.3 0.0 0.0 --- 0.00 30.260
11/10/2003 6:30 p 32.5 32.5 32.5 33.1 31.8 64 21.7 0.0 0.0 --- 0.00 30.253
11/10/2003 7:00 p 31.7 31.7 31.7 31.9 31.2 70 23.1 0.0 0.0 --- 0.00 30.257
11/10/2003 7:30 p 30.6 30.6 30.6 31.2 29.9 73 23.0 0.0 0.0 --- 0.00 30.260
11/10/2003 8:00 p 29.3 29.3 29.3 29.9 28.8 73 21.7 0.0 0.0 --- 0.00 30.249
11/10/2003 8:30 p 28.4 28.4 28.4 28.8 28.1 78 22.4 0.0 0.0 --- 0.00 30.250
11/10/2003 9:00 p 28.5 28.5 28.5 28.7 28.4 79 22.8 0.0 0.0 --- 0.00 30.241
11/10/2003 9:30 p 28.1 28.1 28.1 28.4 28.0 83 23.6 0.0 0.0 --- 0.00 30.233
11/10/2003 10:00 p 28.1 28.1 28.1 28.2 27.9 83 23.6 0.0 0.0 --- 0.00 30.234
11/10/2003 10:30 p 28.1 28.1 28.1 28.3 28.0 84 23.9 0.0 0.0 --- 0.00 30.239
11/10/2003 11:00 p 28.8 28.8 28.8 29.2 28.2 83 24.3 0.0 0.0 --- 0.00 30.232
11/10/2003 11:30 p 28.9 28.9 28.9 29.2 28.6 83 24.4 0.0 0.0 --- 0.00 30.224
11/11/2003 12:00 a 29.0 29.0 29.0 29.4 28.7 83 24.5 0.0 0.0 --- 0.00 30.212
11/11/2003 12:30 a 29.2 29.2 29.2 29.4 28.9 84 25.0 0.0 0.0 --- 0.00 30.194
11/11/2003 1:00 a 28.8 28.8 28.8 29.0 28.7 85 24.9 0.0 0.0 --- 0.00 30.194
11/11/2003 1:30 a 28.5 28.5 28.5 28.9 28.2 87 25.1 0.0 0.0 --- 0.00 30.197
11/11/2003 2:00 a 28.1 28.1 28.1 28.3 27.8 87 24.7 0.0 0.0 --- 0.00 30.199
11/11/2003 2:30 a 27.7 27.7 27.7 27.9 27.6 87 24.3 0.0 0.0 --- 0.00 30.193
11/11/2003 3:00 a 28.0 28.0 28.0 28.1 27.8 88 24.9 0.0 0.0 --- 0.00 30.184
11/11/2003 3:30 a 27.5 27.5 27.5 27.9 27.3 90 25.0 0.0 0.0 --- 0.00 30.172
11/11/2003 4:00 a 27.7 27.7 27.7 28.0 27.3 89 24.9 0.0 0.0 --- 0.00 30.179
11/11/2003 4:30 a 26.7 26.7 26.7 27.2 26.3 90 24.2 0.0 0.0 --- 0.00 30.181
11/11/2003 5:00 a 26.1 26.1 26.1 26.3 25.9 91 23.8 0.0 0.0 --- 0.00 30.179
11/11/2003 5:30 a 25.7 25.7 25.7 25.9 25.5 91 23.4 0.0 0.0 --- 0.00 30.164
11/11/2003 6:00 a 25.8 25.8 25.8 25.9 25.7 92 23.8 0.0 0.0 --- 0.00 30.155
11/11/2003 6:30 a 26.0 26.0 26.0 26.1 25.8 91 23.7 0.0 0.0 --- 0.00 30.145
11/11/2003 7:00 a 26.5 26.5 26.5 27.4 25.9 92 24.5 0.0 0.0 --- 0.00 30.135
11/11/2003 7:30 a 28.3 28.3 28.3 28.9 27.4 91 26.0 0.0 0.0 --- 0.00 30.128
11/11/2003 8:00 a 33.6 33.6 33.6 39.2 28.9 73 25.9 0.0 0.0 --- 0.00 30.134
11/11/2003 8:30 a 39.8 39.8 39.8 41.9 38.9 62 27.9 0.0 1.0 N 0.00 30.123
11/11/2003 9:00 a 41.2 41.2 41.2 42.4 40.4 62 29.2 0.0 2.0 N 0.01 30.125
11/11/2003 9:30 a 41.6 41.6 41.6 42.3 40.9 61 29.2 0.0 1.0 --- 0.02 30.124
11/11/2003 10:00 a 42.1 42.1 42.1 42.3 41.9 61 29.6 0.0 0.0 --- 0.02 30.110
11/11/2003 10:30 a 43.1 43.1 43.1 44.3 42.0 60 30.2 0.0 1.0 --- 0.01 30.085
11/11/2003 11:00 a 46.0 46.0 46.0 46.6 44.3 59 32.5 0.0 0.0 --- 0.02 30.072
11/11/2003 11:30 a 46.3 46.3 46.3 47.0 45.9 60 33.2 0.0 0.0 --- 0.02 30.046
11/11/2003 12:00 p 48.2 48.2 48.2 48.7 47.1 61 35.4 0.0 2.0 N 0.02 30.025
11/11/2003 12:30 p 49.0 49.0 49.0 49.2 48.6 61 36.2 0.0 2.0 N 0.02 30.009
11/11/2003 1:00 p 47.6 47.6 47.6 49.2 46.3 94 46.0 0.0 0.0 --- 0.03 29.992
11/11/2003 1:30 p 46.6 46.6 46.6 46.8 46.4 93 44.7 0.0 0.0 --- 0.01 29.964
11/11/2003 2:00 p 46.9 46.9 46.9 47.0 46.7 93 45.0 0.0 0.0 --- 0.02 29.956
11/11/2003 2:30 p 46.9 46.9 46.9 47.4 46.6 92 44.7 0.0 0.0 --- 0.01 29.955
11/11/2003 3:00 p 46.9 46.9 46.9 47.4 46.7 93 45.0 0.0 0.0 --- 0.01 29.931
11/11/2003 3:30 p 47.1 47.1 47.1 47.3 46.9 93 45.2 0.0 0.0 --- 0.02 29.924
11/11/2003 4:00 p 46.9 46.9 46.9 47.1 46.8 92 44.7 0.0 0.0 --- 0.00 29.921
11/11/2003 4:30 p 46.6 46.6 46.6 46.8 46.5 93 44.7 0.0 0.0 --- 0.01 29.907
11/11/2003 5:00 p 46.5 46.5 46.5 46.6 46.5 93 44.6 0.0 0.0 --- 0.01 29.892
11/11/2003 5:30 p 46.5 46.5 46.5 46.6 46.5 93 44.6 0.0 0.0 --- 0.00 29.880
11/11/2003 6:00 p 46.6 46.6 46.6 46.8 46.5 93 44.7 0.0 0.0 --- 0.01 29.889
11/11/2003 6:30 p 46.7 46.7 46.7 46.9 46.4 94 45.1 0.0 0.0 --- 0.00 29.880
11/11/2003 7:00 p 46.3 46.3 46.3 46.5 46.2 94 44.7 0.0 0.0 --- 0.00 29.879
11/11/2003 7:30 p 46.4 46.4 46.4 46.5 46.3 94 44.8 0.0 0.0 --- 0.01 29.862
11/11/2003 8:00 p 46.6 46.6 46.6 46.8 46.5 94 45.0 0.0 0.0 --- 0.00 29.864
11/11/2003 8:30 p 47.3 47.3 47.3 47.6 46.8 94 45.7 0.0 0.0 --- 0.00 29.865
11/11/2003 9:00 p 47.2 47.2 47.2 47.5 46.9 95 45.8 0.0 0.0 --- 0.00 29.866
11/11/2003 9:30 p 46.9 46.9 46.9 46.9 46.8 94 45.3 0.0 0.0 --- 0.00 29.868
11/11/2003 10:00 p 47.0 47.0 47.0 47.1 46.9 95 45.6 0.0 0.0 --- 0.00 29.864
11/11/2003 10:30 p 47.1 47.1 47.1 47.2 46.9 95 45.7 0.0 0.0 --- 0.00 29.863
11/11/2003 11:00 p 47.1 47.1 47.1 47.1 46.9 95 45.7 0.0 0.0 --- 0.00 29.858
11/11/2003 11:30 p 46.9 46.9 46.9 47.0 46.9 95 45.5 0.0 0.0 --- 0.00 29.834
11/12/2003 12:00 a 47.2 47.2 47.2 47.5 46.9 95 45.8 0.0 0.0 --- 0.00 29.832
11/12/2003 12:30 a 47.4 47.4 47.4 47.5 47.3 95 46.0 0.0 0.0 --- 0.00 29.831
11/12/2003 1:00 a 47.3 47.3 47.3 47.5 47.1 96 46.2 0.0 0.0 --- 0.00 29.819
11/12/2003 1:30 a 47.2 47.2 47.2 47.2 47.1 97 46.4 0.0 0.0 --- 0.00 29.818
11/12/2003 2:00 a 46.8 46.8 46.8 47.1 46.6 98 46.3 0.0 0.0 --- 0.02 29.808
11/12/2003 2:30 a 46.5 46.5 46.5 46.6 46.4 98 46.0 0.0 0.0 --- 0.03 29.780
11/12/2003 3:00 a 46.2 46.2 46.2 46.4 46.1 98 45.7 0.0 2.0 N 0.01 29.796
11/12/2003 3:30 a 46.1 46.1 46.1 46.3 45.9 99 45.8 0.0 0.0 --- 0.04 29.754
11/12/2003 4:00 a 45.9 45.9 45.9 46.0 45.9 99 45.6 0.0 1.0 --- 0.00 29.757
11/12/2003 4:30 a 46.2 46.2 46.2 46.3 46.0 99 45.9 0.0 1.0 N 0.02 29.781
11/12/2003 5:00 a 46.1 46.1 46.1 46.2 46.0 98 45.6 0.0 0.0 --- 0.04 29.757
11/12/2003 5:30 a 46.2 46.2 46.2 46.5 46.0 99 45.9 0.0 0.0 --- 0.03 29.773
11/12/2003 6:00 a 46.5 46.5 46.5 46.5 46.4 99 46.2 0.0 0.0 --- 0.03 29.757
11/12/2003 6:30 a 46.8 46.8 46.8 46.9 46.5 99 46.5 0.0 0.0 --- 0.02 29.758
11/12/2003 7:00 a 47.1 47.1 47.1 47.3 46.9 99 46.8 0.0 0.0 --- 0.01 29.769
11/12/2003 7:30 a 47.5 47.5 47.5 47.7 47.3 99 47.2 0.0 0.0 --- 0.01 29.750
11/12/2003 8:00 a 47.8 47.8 47.8 48.1 47.6 99 47.5 0.0 0.0 --- 0.01 29.761
11/12/2003 8:30 a 48.1 48.1 48.1 48.2 48.0 99 47.8 0.0 0.0 --- 0.01 29.777
11/12/2003 9:00 a 48.7 48.7 48.7 49.4 48.2 99 48.4 0.0 1.0 N 0.00 29.736
11/12/2003 9:30 a 50.0 50.0 50.0 50.5 49.4 99 49.7 0.0 2.0 N 0.00 29.739
11/12/2003 10:00 a 50.6 50.6 50.6 50.8 50.5 99 50.3 0.0 2.0 N 0.01 29.763
11/12/2003 10:30 a 51.3 51.3 51.3 51.7 50.8 99 51.0 0.0 1.0 N 0.00 29.775
11/12/2003 11:00 a 51.4 51.4 51.4 51.8 51.1 99 51.1 0.0 2.0 ENE 0.00 29.764
11/12/2003 11:30 a 51.9 51.9 51.9 52.3 51.5 99 51.6 0.0 1.0 ENE 0.01 29.755
11/12/2003 12:00 p 52.9 52.9 52.9 53.2 52.3 99 52.6 0.0 0.0 --- 0.00 29.736
11/12/2003 12:30 p 53.2 53.2 53.2 53.4 52.9 99 52.9 0.0 0.0 --- 0.00 29.736
11/12/2003 1:00 p 52.9 52.9 52.9 53.1 52.6 99 52.6 0.0 1.0 --- 0.00 29.721
11/12/2003 1:30 p 53.2 53.2 53.2 53.7 52.7 99 52.9 0.0 1.0 ENE 0.00 29.728
11/12/2003 2:00 p 53.5 53.5 53.5 53.8 53.1 99 53.2 0.0 1.0 --- 0.01 29.699
11/12/2003 2:30 p 53.4 53.4 53.4 53.6 53.2 100 53.4 0.0 3.0 ENE 0.00 29.689
11/12/2003 3:00 p 53.4 53.4 53.4 53.7 53.2 99 53.1 0.0 1.0 ENE 0.00 29.706
11/12/2003 3:30 p 53.3 53.3 53.3 53.5 53.1 99 53.0 0.0 1.0 ENE 0.00 29.688
11/12/2003 4:00 p 52.9 52.9 52.9 53.2 52.6 99 52.6 0.0 0.0 --- 0.00 29.686
11/12/2003 4:30 p 52.4 52.4 52.4 52.6 52.1 99 52.1 0.0 0.0 --- 0.00 29.680
11/12/2003 5:00 p 52.0 52.0 52.0 52.1 51.8 99 51.7 0.0 0.0 --- 0.00 29.673
11/12/2003 5:30 p 51.8 51.8 51.8 51.8 51.7 99 51.5 0.0 0.0 --- 0.00 29.663
11/12/2003 6:00 p 51.7 51.7 51.7 51.8 51.7 99 51.4 0.0 1.0 --- 0.00 29.663
11/12/2003 6:30 p 51.9 51.9 51.9 52.1 51.7 99 51.6 0.0 0.0 --- 0.01 29.641
11/12/2003 7:00 p 52.1 52.1 52.1 52.2 52.0 99 51.8 0.0 0.0 --- 0.00 29.617
11/12/2003 7:30 p 52.3 52.3 52.3 52.4 52.2 99 52.0 0.0 0.0 --- 0.00 29.612
11/12/2003 8:00 p 52.6 52.6 52.6 53.0 52.4 100 52.6 0.0 1.0 --- 0.00 29.587
11/12/2003 8:30 p 53.3 53.3 53.3 53.4 53.0 99 53.0 0.0 2.0 ENE 0.00 29.567
11/12/2003 9:00 p 53.5 53.5 53.5 53.5 53.4 99 53.2 0.0 2.0 NNE 0.00 29.559
11/12/2003 9:30 p 53.5 53.5 53.5 53.6 53.5 99 53.2 0.0 1.0 --- 0.00 29.534
11/12/2003 10:00 p 53.6 53.6 53.6 53.7 53.5 100 53.6 0.0 2.0 NNE 0.00 29.511
11/12/2003 10:30 p 53.9 53.9 53.9 54.0 53.7 99 53.6 0.0 2.0 NNE 0.00 29.460
11/12/2003 11:00 p 54.0 54.0 54.0 54.1 53.9 99 53.7 0.0 2.0 N 0.00 29.444
11/12/2003 11:30 p 54.1 54.1 54.1 54.2 54.1 100 54.1 0.0 2.0 N 0.00 29.414
11/13/2003 12:00 a 54.2 54.2 54.2 54.2 54.1 99 53.9 0.0 2.0 N 0.00 29.386
11/13/2003 12:30 a 54.1 54.1 54.1 54.2 54.0 100 54.1 0.0 1.0 N 0.00 29.350
11/13/2003 1:00 a 54.4 54.4 54.4 54.5 54.2 99 54.1 0.0 1.0 N 0.00 29.317
11/13/2003 1:30 a 54.5 54.5 54.5 54.5 54.4 99 54.2 0.0 0.0 --- 0.00 29.313
11/13/2003 2:00 a 54.8 54.8 54.8 55.4 54.4 99 54.5 0.0 2.0 N 0.00 29.286
11/13/2003 2:30 a 55.9 55.9 55.9 56.3 55.4 99 55.6 0.0 2.0 N 0.00 29.271
11/13/2003 3:00 a 56.6 56.6 56.6 56.9 56.3 99 56.3 0.0 2.0 N 0.00 29.244
11/13/2003 3:30 a 57.2 57.2 57.2 57.7 56.9 100 57.2 0.0 3.0 NW 0.00 29.234
11/13/2003 4:00 a 57.4 57.4 57.4 57.8 55.9 100 57.4 1.0 9.0 SE 0.02 29.240
11/13/2003 4:30 a 55.0 55.0 55.0 55.9 54.6 100 55.0 0.0 4.0 SSE 0.02 29.236
11/13/2003 5:00 a 54.6 54.6 54.6 54.7 54.4 100 54.6 0.0 1.0 SSE 0.00 29.229
11/13/2003 5:30 a 53.6 53.6 53.6 54.4 52.7 100 53.6 1.0 6.0 SE 0.01 29.218
11/13/2003 6:00 a 52.3 52.3 52.3 52.7 51.7 100 52.3 1.0 6.0 SSE 0.00 29.245
11/13/2003 6:30 a 51.0 51.0 51.0 51.7 50.4 98 50.5 3.0 12.0 SE 0.01 29.265
11/13/2003 7:00 a 50.0 50.0 50.0 50.7 49.4 93 48.1 3.0 17.0 SE 0.00 29.293
11/13/2003 7:30 a 48.6 48.6 48.6 49.4 48.1 76 41.4 3.0 16.0 SE 0.00 29.298
11/13/2003 8:00 a 51.3 51.3 51.3 56.6 48.1 54 35.2 3.0 16.0 SE 0.00 29.309
11/13/2003 8:30 a 56.1 56.1 56.1 58.3 53.4 50 37.7 3.0 16.0 SE 0.00 29.315
11/13/2003 9:00 a 52.8 52.8 52.8 56.8 50.8 50 34.7 3.0 13.0 SE 0.00 29.313
11/13/2003 9:30 a 50.6 50.6 50.6 51.0 50.1 49 32.2 4.0 19.0 SE 0.00 29.330
11/13/2003 10:00 a 49.0 49.0 49.0 50.8 47.1 58 34.9 3.0 10.0 SE 0.00 29.337
11/13/2003 10:30 a 52.1 52.1 52.1 54.4 48.0 49 33.5 3.0 13.0 SE 0.01 29.339
11/13/2003 11:00 a 49.7 49.7 49.7 51.0 49.2 45 29.2 3.0 12.0 SE 0.00 29.336
11/13/2003 11:30 a 50.8 50.8 50.8 55.3 49.5 35 24.2 3.0 17.0 SE 0.00 29.321
11/13/2003 12:00 p 51.1 51.1 51.1 55.0 48.2 40 27.6 4.0 13.0 SE 0.00 29.321
11/13/2003 12:30 p 49.4 49.4 49.4 50.6 47.9 49 31.1 3.0 11.0 SSE 0.00 29.323
11/13/2003 1:00 p 47.2 47.2 47.2 47.8 46.5 43 25.9 3.0 14.0 SE 0.00 29.321
11/13/2003 1:30 p 46.9 46.9 46.9 47.3 46.5 39 23.3 4.0 14.0 SE 0.00 29.318
11/13/2003 2:00 p 46.6 46.6 46.6 46.9 45.8 42 24.8 4.0 12.0 SSE 0.00 29.319
11/13/2003 2:30 p 45.5 45.5 45.5 45.9 44.9 42 23.8 3.0 14.0 SSE 0.00 29.318
11/13/2003 3:00 p 45.3 45.3 45.3 45.6 44.9 40 22.4 4.0 14.0 SE 0.01 29.333
11/13/2003 3:30 p 44.5 44.5 44.5 44.9 44.2 42 22.9 4.0 16.0 SE 0.00 29.339
11/13/2003 4:00 p 44.1 44.1 44.1 44.2 43.7 40 21.3 4.0 19.0 SE 0.00 29.342
11/13/2003 4:30 p 43.4 43.4 43.4 43.7 42.8 43 22.4 4.0 17.0 SE 0.00 29.349
11/13/2003 5:00 p 42.4 42.4 42.4 42.8 42.1 44 22.0 4.0 14.0 SE 0.00 29.364
11/13/2003 5:30 p 42.2 42.2 42.2 42.3 42.0 45 22.4 4.0 15.0 SE 0.00 29.379
11/13/2003 6:00 p 41.9 41.9 41.9 42.3 41.5 51 25.1 4.0 15.0 SE 0.00 29.394
11/13/2003 6:30 p 41.1 41.1 41.1 41.6 40.5 56 26.6 4.0 14.0 SE 0.00 29.403
11/13/2003 7:00 p 40.3 40.3 40.3 40.6 40.2 57 26.3 3.0 14.0 SE 0.00 29.409
11/13/2003 7:30 p 40.2 40.2 40.2 40.4 39.9 60 27.4 4.0 14.0 SE 0.00 29.422
11/13/2003 8:00 p 39.9 39.9 39.9 40.0 39.9 57 25.9 4.0 12.0 SE 0.00 29.431
11/13/2003 8:30 p 40.1 40.1 40.1 40.2 40.0 53 24.4 4.0 15.0 SE 0.00 29.453
11/13/2003 9:00 p 40.2 40.2 40.2 40.3 40.0 52 24.0 3.0 14.0 SE 0.00 29.471
11/13/2003 9:30 p 39.9 39.9 39.9 40.0 39.7 52 23.7 3.0 17.0 SE 0.00 29.480
11/13/2003 10:00 p 39.7 39.7 39.7 39.8 39.2 44 19.6 4.0 14.0 SE 0.00 29.492
11/13/2003 10:30 p 38.7 38.7 38.7 39.2 38.5 45 19.2 4.0 17.0 SE 0.00 29.495
11/13/2003 11:00 p 39.0 39.0 39.0 39.1 38.7 47 20.5 4.0 16.0 SE 0.00 29.509
11/13/2003 11:30 p 39.1 39.1 39.1 39.2 39.0 46 20.1 3.0 13.0 SE 0.00 29.520
11/14/2003 12:00 a 39.1 39.1 36.2 39.3 39.1 44 19.0 5.0 15.0 SE 0.00 29.523
11/14/2003 12:30 a 38.9 38.9 38.9 39.2 38.5 46 19.9 4.0 16.0 SE 0.00 29.520
11/14/2003 1:00 a 38.6 38.6 35.7 38.8 38.5 45 19.1 5.0 16.0 SE 0.00 29.544
11/14/2003 1:30 a 38.2 38.2 38.2 38.5 37.9 45 18.7 4.0 19.0 SE 0.00 29.548
11/14/2003 2:00 a 37.6 37.6 37.6 37.9 37.1 44 17.7 4.0 16.0 SE 0.00 29.556
11/14/2003 2:30 a 36.6 36.6 36.6 37.1 36.3 43 16.2 4.0 16.0 SE 0.00 29.573
11/14/2003 3:00 a 36.1 36.1 36.1 36.2 35.7 44 16.3 4.0 16.0 SE 0.00 29.582
11/14/2003 3:30 a 35.9 35.9 35.9 36.1 35.6 44 16.1 4.0 17.0 SE 0.00 29.586
11/14/2003 4:00 a 35.6 35.6 35.6 35.9 35.3 43 15.3 4.0 14.0 SE 0.00 29.599
11/14/2003 4:30 a 35.7 35.7 35.7 36.0 35.6 43 15.4 4.0 10.0 SE 0.00 29.607
11/14/2003 5:00 a 35.3 35.3 32.2 35.7 35.0 40 13.4 5.0 17.0 SE 0.00 29.631
11/14/2003 5:30 a 34.7 34.7 34.7 35.3 34.1 44 15.0 4.0 17.0 SE 0.00 29.626
11/14/2003 6:00 a 33.9 33.9 33.9 34.1 33.6 44 14.3 3.0 12.0 SE 0.00 29.633
11/14/2003 6:30 a 34.3 34.3 34.3 34.4 34.0 45 15.2 4.0 17.0 SE 0.00 29.655
11/14/2003 7:00 a 34.0 34.0 34.0 34.3 33.8 46 15.4 3.0 11.0 SE 0.00 29.672
11/14/2003 7:30 a 34.9 34.9 34.9 36.1 34.1 42 14.2 4.0 14.0 SE 0.00 29.685
11/14/2003 8:00 a 38.9 38.9 36.0 43.1 36.0 29 9.4 5.0 18.0 SE 0.00 29.705
11/14/2003 8:30 a 43.1 43.1 43.1 45.4 40.5 27 11.4 4.0 17.0 SE 0.00 29.717
11/14/2003 9:00 a 40.7 40.7 37.9 42.8 38.2 28 10.1 5.0 24.0 SE 0.01 29.712
11/14/2003 9:30 a 38.4 38.4 35.5 39.3 37.9 28 8.2 5.0 20.0 SE 0.00 29.710
11/14/2003 10:00 a 39.0 39.0 36.1 39.3 38.7 29 9.5 5.0 19.0 SE 0.00 29.717
11/14/2003 10:30 a 42.1 42.1 39.4 44.5 38.9 26 9.7 5.0 22.0 SE 0.00 29.721
11/14/2003 11:00 a 42.3 42.3 39.6 43.9 41.3 27 10.7 5.0 20.0 SE 0.00 29.716
11/14/2003 11:30 a 47.8 47.8 45.4 52.0 44.0 23 11.8 5.0 21.0 SE 0.00 29.699
11/14/2003 12:00 p 51.4 51.4 49.2 52.1 49.0 24 15.8 5.0 20.0 SE 0.00 29.693
11/14/2003 12:30 p 44.8 44.8 42.3 48.8 43.9 31 16.0 5.0 21.0 SE 0.00 29.668
11/14/2003 1:00 p 44.8 44.8 42.3 45.1 44.4 33 17.5 5.0 21.0 SE 0.00 29.664
11/14/2003 1:30 p 44.6 44.6 42.0 45.0 44.1 35 18.7 5.0 18.0 SE 0.00 29.668
11/14/2003 2:00 p 44.4 44.4 44.4 44.7 44.1 40 21.6 4.0 17.0 SE 0.00 29.663
11/14/2003 2:30 p 43.7 43.7 43.7 44.2 43.1 43 22.7 4.0 18.0 SE 0.00 29.668
11/14/2003 3:00 p 42.8 42.8 40.1 43.2 42.4 44 22.4 5.0 17.0 SE 0.00 29.672
11/14/2003 3:30 p 42.1 42.1 42.1 42.4 42.0 45 22.3 4.0 15.0 SE 0.00 29.668
11/14/2003 4:00 p 41.6 41.6 41.6 42.0 41.3 46 22.4 3.0 11.0 SE 0.00 29.675
11/14/2003 4:30 p 41.4 41.4 41.4 41.5 41.1 48 23.2 4.0 15.0 SE 0.00 29.680
11/14/2003 5:00 p 40.6 40.6 40.6 41.3 40.0 52 24.4 3.0 10.0 SE 0.00 29.693
11/14/2003 5:30 p 39.8 39.8 39.8 40.1 39.7 53 24.1 2.0 9.0 SE 0.00 29.693
11/14/2003 6:00 p 39.7 39.7 39.7 39.9 39.4 55 24.9 2.0 6.0 SE 0.00 29.701
11/14/2003 6:30 p 38.5 38.5 38.5 39.4 37.9 57 24.6 0.0 2.0 S 0.00 29.702
11/14/2003 7:00 p 39.4 39.4 39.4 40.0 38.7 56 25.0 1.0 8.0 ESE 0.00 29.700
11/14/2003 7:30 p 39.6 39.6 39.6 40.1 38.8 54 24.3 0.0 3.0 SSE 0.00 29.700
11/14/2003 8:00 p 39.6 39.6 39.6 39.8 39.4 56 25.2 0.0 1.0 SE 0.00 29.707
11/14/2003 8:30 p 40.2 40.2 40.2 40.5 39.7 56 25.8 0.0 1.0 SE 0.00 29.710
11/14/2003 9:00 p 40.7 40.7 40.7 40.9 40.5 56 26.2 0.0 1.0 SE 0.00 29.708
11/14/2003 9:30 p 40.8 40.8 40.8 41.2 40.5 53 25.0 1.0 6.0 SE 0.00 29.715
11/14/2003 10:00 p 41.7 41.7 41.7 42.0 41.2 51 24.9 2.0 7.0 SE 0.00 29.705
11/14/2003 10:30 p 42.1 42.1 42.1 43.0 41.7 48 23.8 1.0 6.0 SSE 0.00 29.699
11/14/2003 11:00 p 43.3 43.3 43.3 43.6 43.0 47 24.4 1.0 7.0 SE 0.00 29.699
11/14/2003 11:30 p 42.7 42.7 42.7 43.3 42.3 49 24.9 1.0 5.0 ESE 0.00 29.709
11/15/2003 12:00 a 42.6 42.6 42.6 43.0 42.4 49 24.8 1.0 4.0 SSE 0.00 29.710
11/15/2003 12:30 a 43.4 43.4 43.4 43.7 43.0 49 25.5 1.0 6.0 SE 0.00 29.710
11/15/2003 1:00 a 43.9 43.9 43.9 44.0 43.6 49 26.0 1.0 6.0 ESE 0.00 29.730
11/15/2003 1:30 a 44.2 44.2 44.2 44.2 44.0 51 27.2 2.0 6.0 SE 0.00 29.735
11/15/2003 2:00 a 44.1 44.1 44.1 44.3 43.7 53 28.1 3.0 13.0 SE 0.00 29.745
11/15/2003 2:30 a 44.3 44.3 44.3 44.6 43.9 51 27.3 2.0 10.0 SE 0.00 29.754
11/15/2003 3:00 a 44.6 44.6 44.6 44.7 44.3 52 28.1 3.0 14.0 SE 0.00 29.778
11/15/2003 3:30 a 44.1 44.1 44.1 44.3 43.9 53 28.1 3.0 11.0 SE 0.00 29.785
11/15/2003 4:00 a 43.8 43.8 43.8 44.0 43.7 52 27.3 4.0 14.0 SE 0.00 29.797
11/15/2003 4:30 a 43.4 43.4 43.4 43.8 43.0 52 27.0 3.0 12.0 SE 0.00 29.814
11/15/2003 5:00 a 42.7 42.7 42.7 43.0 42.4 54 27.2 3.0 12.0 SE 0.00 29.828
11/15/2003 5:30 a 41.5 41.5 41.5 42.4 40.4 55 26.6 3.0 14.0 SE 0.00 29.835
11/15/2003 6:00 a 39.9 39.9 39.9 40.5 38.9 57 25.9 2.0 10.0 SE 0.00 29.848
11/15/2003 6:30 a 38.3 38.3 38.3 38.9 38.1 58 24.8 1.0 5.0 SE 0.00 29.864
11/15/2003 7:00 a 37.6 37.6 37.6 38.3 36.9 62 25.8 1.0 6.0 SE 0.00 29.886
11/15/2003 7:30 a 37.9 37.9 37.9 39.0 36.9 58 24.5 1.0 6.0 SE 0.00 29.900
11/15/2003 8:00 a 43.0 43.0 43.0 48.3 38.9 42 21.5 1.0 9.0 SE 0.00 29.905
11/15/2003 8:30 a 47.0 47.0 47.0 49.4 44.0 45 26.8 2.0 9.0 SE 0.00 29.907
11/15/2003 9:00 a 44.5 44.5 44.5 46.2 42.5 48 26.0 3.0 10.0 SE 0.00 29.910
11/15/2003 9:30 a 42.4 42.4 42.4 43.4 41.7 44 22.0 2.0 14.0 SE 0.00 29.922
11/15/2003 10:00 a 42.8 42.8 42.8 43.4 42.5 43 21.9 3.0 12.0 SE 0.00 29.931
11/15/2003 10:30 a 46.3 46.3 46.3 49.1 42.8 33 18.8 4.0 12.0 SE 0.00 29.923
11/15/2003 11:00 a 46.4 46.4 46.4 48.4 45.3 31 17.4 3.0 13.0 SE 0.00 29.911
11/15/2003 11:30 a 51.9 51.9 51.9 56.9 48.2 25 17.2 3.0 12.0 SE 0.00 29.905
11/15/2003 12:00 p 57.6 57.6 57.6 58.8 55.5 25 22.1 3.0 10.0 SE 0.00 29.895
11/15/2003 12:30 p 49.0 49.0 49.0 55.4 47.2 31 19.7 3.0 10.0 SE 0.00 29.889
11/15/2003 1:00 p 47.4 47.4 47.4 47.6 47.1 32 19.0 3.0 12.0 SE 0.00 29.889
11/15/2003 1:30 p 48.0 48.0 48.0 48.3 47.6 33 20.3 3.0 9.0 SE 0.00 29.889
11/15/2003 2:00 p 48.2 48.2 48.2 48.4 47.9 33 20.5 4.0 14.0 SE 0.00 29.893
11/15/2003 2:30 p 48.3 48.3 48.3 48.4 47.9 35 21.9 3.0 14.0 SE 0.00 29.901
11/15/2003 3:00 p 48.3 48.3 48.3 48.4 48.2 36 22.6 4.0 15.0 SE 0.00 29.895
11/15/2003 3:30 p 48.1 48.1 48.1 48.2 47.8 39 24.3 4.0 11.0 SE 0.00 29.897
11/15/2003 4:00 p 47.4 47.4 47.4 47.8 46.9 41 24.9 3.0 13.0 SE 0.00 29.901
11/15/2003 4:30 p 46.4 46.4 46.4 46.9 45.8 43 25.1 3.0 9.0 SE 0.00 29.898
11/15/2003 5:00 p 45.2 45.2 45.2 45.9 44.6 45 25.1 2.0 13.0 SE 0.00 29.920
11/15/2003 5:30 p 43.7 43.7 43.7 44.6 42.6 49 25.8 1.0 9.0 SE 0.00 29.938
11/15/2003 6:00 p 42.4 42.4 42.4 42.7 41.7 52 26.0 1.0 3.0 SE 0.00 29.948
11/15/2003 6:30 p 39.8 39.8 39.8 41.7 38.2 59 26.7 0.0 2.0 SE 0.00 29.949
11/15/2003 7:00 p 38.0 38.0 38.0 38.6 37.6 60 25.4 0.0 2.0 SE 0.00 29.965
11/15/2003 7:30 p 38.4 38.4 38.4 39.1 36.5 68 28.8 0.0 1.0 --- 0.00 29.969
11/15/2003 8:00 p 35.1 35.1 35.1 36.5 34.2 73 27.3 0.0 0.0 --- 0.00 29.982
11/15/2003 8:30 p 33.6 33.6 33.6 34.2 33.1 74 26.2 0.0 0.0 --- 0.00 29.989
11/15/2003 9:00 p 32.8 32.8 32.8 33.2 32.0 77 26.4 0.0 0.0 --- 0.00 29.999
11/15/2003 9:30 p 31.6 31.6 31.6 32.0 31.4 80 26.2 0.0 0.0 --- 0.00 30.000
11/15/2003 10:00 p 30.5 30.5 30.5 31.4 30.0 85 26.5 0.0 0.0 --- 0.00 30.003
11/15/2003 10:30 p 30.1 30.1 30.1 30.3 29.9 85 26.1 0.0 0.0 --- 0.00 30.005
11/15/2003 11:00 p 29.7 29.7 29.7 29.9 28.9 86 26.0 0.0 0.0 --- 0.00 30.022
11/15/2003 11:30 p 28.7 28.7 28.7 28.9 28.4 88 25.6 0.0 0.0 --- 0.00 30.029
11/16/2003 12:00 a 28.3 28.3 28.3 28.5 28.2 88 25.2 0.0 0.0 --- 0.00 30.033
11/16/2003 12:30 a 28.4 28.4 28.4 28.5 28.3 89 25.6 0.0 0.0 --- 0.00 30.035
11/16/2003 1:00 a 27.9 27.9 27.9 28.2 27.7 89 25.1 0.0 0.0 --- 0.00 30.044
11/16/2003 1:30 a 27.9 27.9 27.9 28.3 27.4 89 25.1 0.0 0.0 --- 0.00 30.045
11/16/2003 2:00 a 27.9 27.9 27.9 28.1 27.7 90 25.4 0.0 0.0 --- 0.00 30.037
11/16/2003 2:30 a 27.8 27.8 27.8 28.1 27.5 91 25.5 0.0 0.0 --- 0.00 30.037
11/16/2003 3:00 a 27.5 27.5 27.5 27.8 27.4 91 25.2 0.0 0.0 --- 0.00 30.044
11/16/2003 3:30 a 27.8 27.8 27.8 27.9 27.7 90 25.3 0.0 0.0 --- 0.00 30.047
11/16/2003 4:00 a 28.3 28.3 28.3 29.7 27.7 92 26.3 0.0 0.0 --- 0.00 30.055
11/16/2003 4:30 a 30.8 30.8 30.8 31.6 29.7 88 27.7 0.0 0.0 --- 0.00 30.057
11/16/2003 5:00 a 32.1 32.1 32.1 32.5 31.6 86 28.4 0.0 0.0 --- 0.00 30.050
11/16/2003 5:30 a 33.0 33.0 33.0 33.4 32.5 85 29.0 0.0 0.0 --- 0.00 30.058
11/16/2003 6:00 a 33.6 33.6 33.6 34.0 33.4 85 29.6 0.0 0.0 --- 0.00 30.066
11/16/2003 6:30 a 34.3 34.3 34.3 34.8 34.0 83 29.7 0.0 0.0 --- 0.00 30.069
11/16/2003 7:00 a 35.2 35.2 35.2 35.6 34.8 83 30.6 0.0 0.0 --- 0.00 30.074
11/16/2003 7:30 a 36.0 36.0 36.0 36.5 35.6 82 31.0 0.0 0.0 --- 0.00 30.076
11/16/2003 8:00 a 37.3 37.3 37.3 38.4 36.5 79 31.4 0.0 0.0 --- 0.00 30.087
11/16/2003 8:30 a 39.0 39.0 39.0 39.4 38.4 75 31.8 0.0 1.0 SE 0.00 30.101
11/16/2003 9:00 a 40.1 40.1 40.1 41.0 39.5 78 33.8 0.0 0.0 --- 0.00 30.099
11/16/2003 9:30 a 42.2 42.2 42.2 43.9 41.0 68 32.4 0.0 0.0 --- 0.00 30.103
11/16/2003 10:00 a 44.7 44.7 44.7 45.3 43.9 61 32.1 0.0 1.0 --- 0.00 30.094
11/16/2003 10:30 a 46.1 46.1 46.1 46.5 45.4 58 32.2 0.0 1.0 SE 0.00 30.098
11/16/2003 11:00 a 46.8 46.8 46.8 47.0 46.5 56 31.9 0.0 0.0 --- 0.00 30.083
11/16/2003 11:30 a 47.1 47.1 47.1 47.4 46.9 56 32.2 0.0 0.0 --- 0.00 30.076
11/16/2003 12:00 p 48.1 48.1 48.1 48.5 47.4 53 31.8 0.0 0.0 --- 0.00 30.070
11/16/2003 12:30 p 49.8 49.8 49.8 50.8 48.6 52 32.9 0.0 1.0 --- 0.00 30.054
11/16/2003 1:00 p 50.6 50.6 50.6 50.8 50.4 53 34.1 0.0 1.0 SE 0.00 30.042
11/16/2003 1:30 p 51.2 51.2 51.2 51.4 50.6 53 34.7 0.0 2.0 SE 0.00 30.036
11/16/2003 2:00 p 51.5 51.5 51.5 51.7 51.1 53 35.0 0.0 2.0 ENE 0.00 30.032
11/16/2003 2:30 p 51.3 51.3 51.3 51.5 51.0 55 35.7 0.0 1.0 ENE 0.00 30.029
11/16/2003 3:00 p 50.8 50.8 50.8 51.3 50.6 58 36.6 0.0 1.0 ENE 0.00 30.033
11/16/2003 3:30 p 50.5 50.5 50.5 50.7 50.2 59 36.7 0.0 0.0 --- 0.00 30.034
11/16/2003 4:00 p 49.8 49.8 49.8 50.2 49.3 61 36.9 0.0 0.0 --- 0.00 30.036
11/16/2003 4:30 p 48.7 48.7 48.7 49.3 48.1 63 36.7 0.0 0.0 --- 0.00 30.040
11/16/2003 5:00 p 47.7 47.7 47.7 48.1 47.3 65 36.5 0.0 0.0 --- 0.00 30.044
11/16/2003 5:30 p 47.0 47.0 47.0 47.3 46.7 67 36.6 0.0 0.0 --- 0.00 30.039
11/16/2003 6:00 p 46.5 46.5 46.5 46.8 46.4 70 37.3 0.0 0.0 --- 0.00 30.043
11/16/2003 6:30 p 46.3 46.3 46.3 46.4 46.3 72 37.8 0.0 0.0 --- 0.00 30.052
11/16/2003 7:00 p 46.1 46.1 46.1 46.3 45.5 75 38.6 0.0 0.0 --- 0.00 30.045
11/16/2003 7:30 p 44.5 44.5 44.5 45.5 43.7 80 38.7 0.0 0.0 --- 0.00 30.045
11/16/2003 8:00 p 43.2 43.2 43.2 43.9 42.0 82 38.1 0.0 0.0 --- 0.00 30.047
11/16/2003 8:30 p 41.3 41.3 41.3 42.0 40.5 86 37.4 0.0 0.0 --- 0.00 30.044
11/16/2003 9:00 p 40.7 40.7 40.7 40.9 40.6 86 36.8 0.0 0.0 --- 0.00 30.042
11/16/2003 9:30 p 41.2 41.2 41.2 41.3 40.9 85 37.0 0.0 0.0 --- 0.00 30.042
11/16/2003 10:00 p 41.4 41.4 41.4 41.8 41.1 84 36.9 0.0 0.0 --- 0.00 30.040
11/16/2003 10:30 p 42.0 42.0 42.0 42.1 41.8 85 37.8 0.0 0.0 --- 0.00 30.032
11/16/2003 11:00 p 41.7 41.7 41.7 42.1 41.4 85 37.5 0.0 0.0 --- 0.00 30.033
11/16/2003 11:30 p 42.4 42.4 42.4 42.5 42.1 83 37.6 0.0 0.0 --- 0.00 30.031
11/17/2003 12:00 a 43.0 43.0 43.0 43.5 42.5 81 37.6 0.0 0.0 --- 0.00 30.031
11/17/2003 12:30 a 43.7 43.7 43.7 43.9 43.5 79 37.6 0.0 0.0 --- 0.00 30.025
11/17/2003 1:00 a 43.6 43.6 43.6 43.7 43.4 81 38.2 0.0 0.0 --- 0.00 30.024
11/17/2003 1:30 a 44.0 44.0 44.0 44.2 43.7 82 38.9 0.0 0.0 --- 0.00 30.027
11/17/2003 2:00 a 43.7 43.7 43.7 44.0 43.4 92 41.5 0.0 0.0 --- 0.00 30.027
11/17/2003 2:30 a 43.3 43.3 43.3 43.5 43.1 95 42.0 0.0 1.0 --- 0.00 30.026
11/17/2003 3:00 a 43.2 43.2 43.2 43.6 42.9 95 41.9 0.0 0.0 --- 0.00 30.022
11/17/2003 3:30 a 43.9 43.9 43.9 44.0 43.6 96 42.8 0.0 0.0 --- 0.00 30.033
11/17/2003 4:00 a 44.4 44.4 44.4 44.6 44.0 94 42.8 0.0 0.0 --- 0.00 30.031
11/17/2003 4:30 a 44.7 44.7 44.7 44.7 44.6 93 42.8 0.0 0.0 --- 0.00 30.027
11/17/2003 5:00 a 44.5 44.5 44.5 44.6 44.4 92 42.3 0.0 1.0 ENE 0.00 30.035
11/17/2003 5:30 a 44.5 44.5 44.5 44.6 44.4 92 42.3 0.0 0.0 --- 0.00 30.033
11/17/2003 6:00 a 44.5 44.5 44.5 44.6 44.4 93 42.6 0.0 0.0 --- 0.00 30.031
11/17/2003 6:30 a 44.6 44.6 44.6 44.7 44.5 92 42.4 0.0 0.0 --- 0.00 30.045
11/17/2003 7:00 a 44.7 44.7 44.7 44.9 44.7 93 42.8 0.0 0.0 --- 0.00 30.049
11/17/2003 7:30 a 45.0 45.0 45.0 45.4 44.8 92 42.8 0.0 0.0 --- 0.00 30.051
11/17/2003 8:00 a 46.1 46.1 46.1 46.7 45.4 89 43.0 0.0 0.0 --- 0.00 30.051
11/17/2003 8:30 a 47.3 47.3 47.3 48.0 46.7 88 43.9 0.0 1.0 ENE 0.00 30.057
11/17/2003 9:00 a 48.9 48.9 48.9 49.7 48.0 84 44.3 0.0 0.0 --- 0.00 30.058
11/17/2003 9:30 a 50.8 50.8 50.8 51.6 49.7 77 43.9 0.0 1.0 ENE 0.00 30.059
11/17/2003 10:00 a 52.2 52.2 52.2 52.4 51.7 77 45.2 0.0 2.0 ENE 0.00 30.071
11/17/2003 10:30 a 52.6 52.6 52.6 53.2 52.1 74 44.6 0.0 1.0 ENE 0.00 30.063
11/17/2003 11:00 a 53.7 53.7 53.7 54.0 53.0 73 45.3 0.0 0.0 --- 0.00 30.060
11/17/2003 11:30 a 54.5 54.5 54.5 55.3 53.8 71 45.3 0.0 2.0 ENE 0.00 30.053
11/17/2003 12:00 p 55.3 55.3 55.3 55.7 55.0 70 45.7 0.0 2.0 ENE 0.00 30.052
11/17/2003 12:30 p 55.9 55.9 55.9 56.4 55.1 68 45.5 0.0 2.0 ENE 0.00 30.048
11/17/2003 1:00 p 55.6 55.6 55.6 56.3 55.1 70 46.0 0.0 2.0 ENE 0.00 30.050
11/17/2003 1:30 p 54.9 54.9 54.9 55.1 54.8 70 45.3 0.0 1.0 ENE 0.00 30.049
11/17/2003 2:00 p 55.4 55.4 55.4 56.0 54.9 69 45.4 0.0 0.0 --- 0.00 30.045
11/17/2003 2:30 p 55.2 55.2 55.2 55.7 54.8 71 46.0 0.0 0.0 --- 0.00 30.046
11/17/2003 3:00 p 54.1 54.1 54.1 54.8 53.8 73 45.6 0.0 1.0 --- 0.00 30.055
11/17/2003 3:30 p 53.2 53.2 53.2 53.8 52.5 76 45.8 0.0 1.0 ENE 0.00 30.062
11/17/2003 4:00 p 52.1 52.1 52.1 52.5 51.9 80 46.1 0.0 0.0 --- 0.00 30.072
11/17/2003 4:30 p 51.9 51.9 51.9 52.1 51.6 81 46.3 0.0 0.0 --- 0.00 30.081
11/17/2003 5:00 p 51.2 51.2 51.2 51.6 51.0 82 45.9 0.0 0.0 --- 0.00 30.094
11/17/2003 5:30 p 50.8 50.8 50.8 51.0 50.6 83 45.8 0.0 0.0 --- 0.00 30.119
11/17/2003 6:00 p 50.5 50.5 50.5 50.6 50.3 83 45.5 0.0 0.0 --- 0.00 30.123
11/17/2003 6:30 p 50.2 50.2 50.2 50.4 50.0 84 45.6 0.0 0.0 --- 0.00 30.131
11/17/2003 7:00 p 49.8 49.8 49.8 50.0 49.5 85 45.5 0.0 1.0 --- 0.00 30.128
11/17/2003 7:30 p 49.2 49.2 49.2 49.5 48.8 86 45.2 0.0 0.0 --- 0.00 30.131
11/17/2003 8:00 p 47.2 47.2 47.2 48.8 46.4 90 44.4 0.0 0.0 --- 0.00 30.145
11/17/2003 8:30 p 45.8 45.8 45.8 46.4 44.5 92 43.6 0.0 0.0 --- 0.00 30.135
11/17/2003 9:00 p 43.7 43.7 43.7 44.5 43.1 94 42.1 0.0 0.0 --- 0.00 30.148
11/17/2003 9:30 p 42.8 42.8 42.8 43.2 42.5 95 41.5 0.0 0.0 --- 0.00 30.161
11/17/2003 10:00 p 43.6 43.6 43.6 43.8 43.3 95 42.3 0.0 0.0 --- 0.00 30.162
11/17/2003 10:30 p 43.1 43.1 43.1 43.8 42.4 94 41.5 0.0 0.0 --- 0.00 30.169
11/17/2003 11:00 p 41.7 41.7 41.7 42.4 41.2 95 40.4 0.0 0.0 --- 0.00 30.182
11/17/2003 11:30 p 40.8 40.8 40.8 41.2 40.6 95 39.5 0.0 0.0 --- 0.00 30.190
11/18/2003 12:00 a 41.3 41.3 41.3 42.1 40.9 96 40.2 0.0 0.0 --- 0.00 30.183
11/18/2003 12:30 a 42.2 42.2 42.2 42.4 42.1 96 41.1 0.0 0.0 --- 0.00 30.175
11/18/2003 1:00 a 43.0 43.0 43.0 43.6 42.4 97 42.2 0.0 0.0 --- 0.00 30.160
11/18/2003 1:30 a 44.0 44.0 44.0 44.2 43.6 96 42.9 0.0 0.0 --- 0.00 30.168
11/18/2003 2:00 a 44.5 44.5 44.5 45.1 44.0 95 43.2 0.0 0.0 --- 0.00 30.172
11/18/2003 2:30 a 45.0 45.0 45.0 45.1 44.9 95 43.7 0.0 0.0 --- 0.00 30.176
11/18/2003 3:00 a 45.3 45.3 45.3 45.4 45.1 93 43.4 0.0 0.0 --- 0.00 30.186
11/18/2003 3:30 a 45.5 45.5 45.5 45.6 45.4 93 43.6 0.0 0.0 --- 0.00 30.197
11/18/2003 4:00 a 45.4 45.4 45.4 45.6 45.4 91 42.9 0.0 0.0 --- 0.00 30.201
11/18/2003 4:30 a 45.7 45.7 45.7 45.8 45.6 90 42.9 0.0 0.0 --- 0.00 30.216
11/18/2003 5:00 a 45.8 45.8 45.8 45.8 45.7 89 42.7 0.0 0.0 --- 0.00 30.217
11/18/2003 5:30 a 45.7 45.7 45.7